Observation data for Mertzon on 08/06/2020      Previous  Date       Current Mesonet Observations  Soil Data  Daily Summary Page  Observations in Plain Language
KME1 060500Z 18008KT 28/13 A2998 RMK A01 T02840133  RH  039%=      5-min Rain = 0
KME1 060501Z 18009KT 28/13 A2998 RMK A01 T02840133  RH  039%=      5-min Rain = 0
KME1 060502Z 18008KT 28/13 A2998 RMK A01 T02840133  RH  039%=      5-min Rain = 0
KME1 060503Z 17009KT 28/13 A2998 RMK A01 T02840134  RH  040%=      5-min Rain = 0
KME1 060504Z 18009KT 28/13 A2998 RMK A01 T02840134  RH  040%=      5-min Rain = 0
KME1 060505Z 18009KT 28/13 A2998 RMK A01 T02840134  RH  040%=      5-min Rain = 0
KME1 060506Z 18009KT 28/13 A2998 RMK A01 T02840134  RH  040%=      5-min Rain = 0
KME1 060507Z 18009KT 28/13 A2998 RMK A01 T02840134  RH  040%=      5-min Rain = 0
KME1 060508Z 18009KT 28/13 A2998 RMK A01 T02840134  RH  040%=      5-min Rain = 0
KME1 060509Z 18009KT 28/13 A2998 RMK A01 T02840134  RH  040%=      5-min Rain = 0
KME1 060510Z 18009KT 28/13 A2998 RMK A01 T02840134  RH  040%=      5-min Rain = 0
KME1 060511Z 18008KT 28/13 A2998 RMK A01 T02840134  RH  040%=      5-min Rain = 0
KME1 060512Z 18009KT 28/14 A2998 RMK A01 T02840135  RH  040%=      5-min Rain = 0
KME1 060513Z 18009KT 28/14 A2998 RMK A01 T02840135  RH  040%=      5-min Rain = 0
KME1 060514Z 18008KT 28/14 A2998 RMK A01 T02840135  RH  040%=      5-min Rain = 0
KME1 060515Z 17009KT 28/14 A2998 RMK A01 T02830135  RH  040%=      5-min Rain = 0
KME1 060516Z 18008KT 28/14 A2998 RMK A01 T02830135  RH  040%=      5-min Rain = 0
KME1 060517Z 18009G14KT 28/14 A2998 RMK A01 T02830135  RH  040%=      5-min Rain = 0
KME1 060518Z 18009KT 28/14 A2998 RMK A01 T02830135  RH  040%=      5-min Rain = 0
KME1 060519Z 18009KT 28/14 A2998 RMK A01 T02830135  RH  040%=      5-min Rain = 0
KME1 060520Z 18009KT 28/14 A2998 RMK A01 T02840135  RH  040%=      5-min Rain = 0
KME1 060521Z 17010KT 28/14 A2998 RMK A01 T02840136  RH  040%=      5-min Rain = 0
KME1 060522Z 18011KT 28/14 A2998 RMK A01 T02840136  RH  040%=      5-min Rain = 0
KME1 060523Z 18010KT 28/14 A2998 RMK A01 T02840136  RH  040%=      5-min Rain = 0
KME1 060524Z 18009KT 29/14 A2999 RMK A01 T02850136  RH  040%=      5-min Rain = 0
KME1 060525Z 18009KT 29/14 A2999 RMK A01 T02850136  RH  040%=      5-min Rain = 0
KME1 060526Z 18008KT 28/14 A2999 RMK A01 T02840136  RH  040%=      5-min Rain = 0
KME1 060527Z 18010KT 28/14 A2999 RMK A01 T02840136  RH  040%=      5-min Rain = 0
KME1 060528Z 18010KT 28/14 A2999 RMK A01 T02840136  RH  040%=      5-min Rain = 0
KME1 060529Z 18009G14KT 28/14 A2999 RMK A01 T02840137  RH  040%=      5-min Rain = 0
KME1 060530Z 18008KT 29/14 A2999 RMK A01 T02850137  RH  040%=      5-min Rain = 0
KME1 060531Z 18010KT 28/14 A2999 RMK A01 T02840137  RH  041%=      5-min Rain = 0
KME1 060532Z 18009KT 28/14 A2998 RMK A01 T02840137  RH  041%=      5-min Rain = 0
KME1 060533Z 18010KT 28/14 A2999 RMK A01 T02840137  RH  041%=      5-min Rain = 0
KME1 060534Z 18011G16KT 28/14 A2999 RMK A01 T02840137  RH  041%=      5-min Rain = 0
KME1 060535Z 18011KT 28/14 A2999 RMK A01 T02840138  RH  041%=      5-min Rain = 0
KME1 060536Z 18011G16KT 28/14 A2999 RMK A01 T02840138  RH  041%=      5-min Rain = 0
KME1 060537Z 18011KT 28/14 A2999 RMK A01 T02840137  RH  041%=      5-min Rain = 0
KME1 060538Z 17010KT 28/14 A2999 RMK A01 T02840138  RH  041%=      5-min Rain = 0
KME1 060539Z 18009KT 28/14 A2999 RMK A01 T02840138  RH  041%=      5-min Rain = 0
KME1 060540Z 18011G16KT 28/14 A2999 RMK A01 T02840138  RH  041%=      5-min Rain = 0
KME1 060541Z 17010KT 28/14 A2999 RMK A01 T02840138  RH  041%=      5-min Rain = 0
KME1 060542Z 18009KT 28/14 A2999 RMK A01 T02840138  RH  041%=      5-min Rain = 0
KME1 060543Z 18010KT 28/14 A2999 RMK A01 T02840138  RH  041%=      5-min Rain = 0
KME1 060544Z 17010KT 28/14 A2999 RMK A01 T02830138  RH  041%=      5-min Rain = 0
KME1 060545Z 18010KT 28/14 A2999 RMK A01 T02830139  RH  041%=      5-min Rain = 0
KME1 060546Z 17011KT 28/14 A2999 RMK A01 T02830138  RH  041%=      5-min Rain = 0
KME1 060547Z 17010KT 28/14 A2999 RMK A01 T02830138  RH  041%=      5-min Rain = 0
KME1 060548Z 17012KT 28/14 A2999 RMK A01 T02830138  RH  041%=      5-min Rain = 0
KME1 060549Z 18010KT 28/14 A2999 RMK A01 T02830139  RH  041%=      5-min Rain = 0
KME1 060550Z 17009KT 28/14 A2999 RMK A01 T02830139  RH  041%=      5-min Rain = 0
KME1 060551Z 17008KT 28/14 A2999 RMK A01 T02840139  RH  041%=      5-min Rain = 0
KME1 060552Z 17009KT 28/14 A2999 RMK A01 T02820139  RH  041%=      5-min Rain = 0
KME1 060553Z 18010KT 28/14 A2999 RMK A01 T02820139  RH  041%=      5-min Rain = 0
KME1 060554Z 17011KT 28/14 A2999 RMK A01 T02820139  RH  042%=      5-min Rain = 0
KME1 060555Z 18008G13KT 28/14 A2999 RMK A01 T02830139  RH  041%=      5-min Rain = 0
KME1 060556Z 18009G14KT 28/14 A2999 RMK A01 T02830139  RH  041%=      5-min Rain = 0
KME1 060557Z 18010KT 28/14 A2999 RMK A01 T02830140  RH  041%=      5-min Rain = 0
KME1 060558Z 17011KT 28/14 A2999 RMK A01 T02830140  RH  041%=      5-min Rain = 0
KME1 060559Z 18012KT 28/14 A2999 RMK A01 T02830140  RH  041%=      5-min Rain = 0
KME1 060600Z 18010KT 28/14 A2999 RMK A01 T02830140  RH  041%=      5-min Rain = 0
KME1 060601Z 18010KT 28/14 A2999 RMK A01 T02830140  RH  041%=      5-min Rain = 0
KME1 060602Z 17010KT 28/14 A2999 RMK A01 T02840140  RH  041%=      5-min Rain = 0
KME1 060603Z 18010KT 28/14 A2999 RMK A01 T02830140  RH  042%=      5-min Rain = 0
KME1 060604Z 17010G16KT 28/14 A2999 RMK A01 T02830140  RH  042%=      5-min Rain = 0
KME1 060605Z 18010KT 28/14 A2999 RMK A01 T02830140  RH  042%=      5-min Rain = 0
KME1 060606Z 17012KT 28/14 A2999 RMK A01 T02820140  RH  042%=      5-min Rain = 0
KME1 060607Z 17011KT 28/14 A2999 RMK A01 T02820140  RH  042%=      5-min Rain = 0
KME1 060608Z 18012KT 28/14 A2999 RMK A01 T02820140  RH  042%=      5-min Rain = 0
KME1 060609Z 17011KT 28/14 A2999 RMK A01 T02820140  RH  042%=      5-min Rain = 0
KME1 060610Z 17012KT 28/14 A2999 RMK A01 T02820140  RH  042%=      5-min Rain = 0
KME1 060611Z 18011KT 28/14 A2999 RMK A01 T02820140  RH  042%=      5-min Rain = 0
KME1 060612Z 17011KT 28/14 A2999 RMK A01 T02820140  RH  042%=      5-min Rain = 0
KME1 060613Z 18011G16KT 28/14 A2999 RMK A01 T02810140  RH  042%=      5-min Rain = 0
KME1 060614Z 18013KT 28/14 A2999 RMK A01 T02810141  RH  042%=      5-min Rain = 0
KME1 060615Z 18010G16KT 28/14 A2999 RMK A01 T02810140  RH  042%=      5-min Rain = 0
KME1 060616Z 18012KT 28/14 A2999 RMK A01 T02810141  RH  042%=      5-min Rain = 0
KME1 060617Z 18014KT 28/14 A2998 RMK A01 T02800140  RH  042%=      5-min Rain = 0
KME1 060618Z 18012KT 28/14 A2998 RMK A01 T02810140  RH  042%=      5-min Rain = 0
KME1 060619Z 18012KT 28/14 A2999 RMK A01 T02800140  RH  042%=      5-min Rain = 0
KME1 060620Z 17010KT 28/14 A2998 RMK A01 T02800141  RH  042%=      5-min Rain = 0
KME1 060621Z 17011G17KT 28/14 A2998 RMK A01 T02800141  RH  042%=      5-min Rain = 0
KME1 060622Z 17014KT 28/14 A2998 RMK A01 T02800141  RH  043%=      5-min Rain = 0
KME1 060623Z 18010KT 28/14 A2998 RMK A01 T02800141  RH  043%=      5-min Rain = 0
KME1 060624Z 17011KT 28/14 A2998 RMK A01 T02800141  RH  043%=      5-min Rain = 0
KME1 060625Z 17012KT 28/14 A2998 RMK A01 T02800142  RH  043%=      5-min Rain = 0
KME1 060626Z 18009KT 28/14 A2998 RMK A01 T02800142  RH  043%=      5-min Rain = 0
KME1 060627Z 18012KT 28/14 A2998 RMK A01 T02790141  RH  043%=      5-min Rain = 0
KME1 060628Z 17012KT 28/14 A2998 RMK A01 T02790142  RH  043%=      5-min Rain = 0
KME1 060629Z 18010KT 28/14 A2998 RMK A01 T02790141  RH  043%=      5-min Rain = 0
KME1 060630Z 17010G15KT 28/14 A2998 RMK A01 T02790142  RH  043%=      5-min Rain = 0
KME1 060631Z 17011KT 28/14 A2998 RMK A01 T02780142  RH  043%=      5-min Rain = 0
KME1 060632Z 18009KT 28/14 A2998 RMK A01 T02780142  RH  043%=      5-min Rain = 0
KME1 060633Z 18011KT 28/14 A2998 RMK A01 T02780142  RH  043%=      5-min Rain = 0
KME1 060634Z 17010KT 28/14 A2998 RMK A01 T02770142  RH  043%=      5-min Rain = 0
KME1 060635Z 17012KT 28/14 A2998 RMK A01 T02770142  RH  043%=      5-min Rain = 0
KME1 060636Z 18011KT 28/14 A2998 RMK A01 T02770142  RH  044%=      5-min Rain = 0
KME1 060637Z 18011KT 28/14 A2998 RMK A01 T02770142  RH  044%=      5-min Rain = 0
KME1 060638Z 17010KT 28/14 A2998 RMK A01 T02770142  RH  044%=      5-min Rain = 0
KME1 060639Z 17011KT 28/14 A2998 RMK A01 T02770142  RH  044%=      5-min Rain = 0
KME1 060640Z 17010KT 28/14 A2998 RMK A01 T02770142  RH  044%=      5-min Rain = 0
KME1 060641Z 17009KT 28/14 A2998 RMK A01 T02760142  RH  044%=      5-min Rain = 0
KME1 060642Z 18010KT 28/14 A2998 RMK A01 T02760142  RH  044%=      5-min Rain = 0
KME1 060643Z 17011KT 28/14 A2998 RMK A01 T02760142  RH  044%=      5-min Rain = 0
KME1 060644Z 17011KT 28/14 A2998 RMK A01 T02760142  RH  044%=      5-min Rain = 0
KME1 060645Z 17010KT 28/14 A2998 RMK A01 T02760142  RH  044%=      5-min Rain = 0
KME1 060646Z 17012KT 28/14 A2998 RMK A01 T02750142  RH  044%=      5-min Rain = 0
KME1 060647Z 17012KT 28/14 A2998 RMK A01 T02750142  RH  044%=      5-min Rain = 0
KME1 060648Z 18012KT 28/14 A2998 RMK A01 T02750142  RH  044%=      5-min Rain = 0
KME1 060649Z 17009KT 28/14 A2998 RMK A01 T02760143  RH  044%=      5-min Rain = 0
KME1 060650Z 18011KT 28/14 A2998 RMK A01 T02760143  RH  044%=      5-min Rain = 0
KME1 060651Z 17011KT 28/14 A2998 RMK A01 T02760143  RH  044%=      5-min Rain = 0
KME1 060652Z 17010KT 28/14 A2998 RMK A01 T02760143  RH  044%=      5-min Rain = 0
KME1 060653Z 17010KT 28/14 A2998 RMK A01 T02750143  RH  044%=      5-min Rain = 0
KME1 060654Z 17010KT 28/14 A2998 RMK A01 T02750143  RH  044%=      5-min Rain = 0
KME1 060655Z 17011KT 27/14 A2998 RMK A01 T02740143  RH  045%=      5-min Rain = 0
KME1 060656Z 18011KT 27/14 A2998 RMK A01 T02740143  RH  045%=      5-min Rain = 0
KME1 060657Z 18013KT 27/14 A2998 RMK A01 T02740143  RH  045%=      5-min Rain = 0
KME1 060658Z 17012KT 27/14 A2998 RMK A01 T02740143  RH  045%=      5-min Rain = 0
KME1 060659Z 18009KT 28/14 A2998 RMK A01 T02750143  RH  045%=      5-min Rain = 0
KME1 060700Z 18009G14KT 28/14 A2998 RMK A01 T02750143  RH  045%=      5-min Rain = 0
KME1 060701Z 18011KT 27/14 A2998 RMK A01 T02740143  RH  045%=      5-min Rain = 0
KME1 060702Z 18012KT 27/14 A2998 RMK A01 T02730143  RH  045%=      5-min Rain = 0
KME1 060703Z 18012KT 27/14 A2998 RMK A01 T02730143  RH  045%=      5-min Rain = 0
KME1 060704Z 18010KT 27/14 A2998 RMK A01 T02730143  RH  045%=      5-min Rain = 0
KME1 060705Z 17012KT 27/14 A2998 RMK A01 T02730143  RH  045%=      5-min Rain = 0
KME1 060706Z 18010KT 27/14 A2998 RMK A01 T02730144  RH  045%=      5-min Rain = 0
KME1 060707Z 18011KT 27/14 A2998 RMK A01 T02730144  RH  045%=      5-min Rain = 0
KME1 060708Z 18012KT 27/14 A2998 RMK A01 T02720143  RH  045%=      5-min Rain = 0
KME1 060709Z 18013KT 27/14 A2998 RMK A01 T02730143  RH  045%=      5-min Rain = 0
KME1 060710Z 18014KT 27/14 A2998 RMK A01 T02730143  RH  045%=      5-min Rain = 0
KME1 060711Z 17014KT 27/14 A2998 RMK A01 T02730143  RH  045%=      5-min Rain = 0
KME1 060712Z 17012G17KT 27/14 A2998 RMK A01 T02740144  RH  045%=      5-min Rain = 0
KME1 060713Z 17012G17KT 27/14 A2998 RMK A01 T02730144  RH  045%=      5-min Rain = 0
KME1 060714Z 18011G16KT 27/14 A2998 RMK A01 T02730144  RH  045%=      5-min Rain = 0
KME1 060715Z 18014KT 27/14 A2998 RMK A01 T02730144  RH  045%=      5-min Rain = 0
KME1 060716Z 17011KT 27/14 A2998 RMK A01 T02730144  RH  045%=      5-min Rain = 0
KME1 060717Z 17011KT 27/14 A2998 RMK A01 T02730144  RH  045%=      5-min Rain = 0
KME1 060718Z 18011KT 27/14 A2998 RMK A01 T02720144  RH  045%=      5-min Rain = 0
KME1 060719Z 18010KT 27/14 A2998 RMK A01 T02720144  RH  045%=      5-min Rain = 0
KME1 060720Z 18010KT 27/14 A2998 RMK A01 T02720144  RH  046%=      5-min Rain = 0
KME1 060721Z 17012KT 27/14 A2998 RMK A01 T02710144  RH  046%=      5-min Rain = 0
KME1 060722Z 17011KT 27/14 A2998 RMK A01 T02710144  RH  046%=      5-min Rain = 0
KME1 060723Z 17014KT 27/14 A2998 RMK A01 T02710144  RH  046%=      5-min Rain = 0
KME1 060724Z 17012G17KT 27/15 A2998 RMK A01 T02710145  RH  046%=      5-min Rain = 0
KME1 060725Z 17011G16KT 27/14 A2998 RMK A01 T02700144  RH  046%=      5-min Rain = 0
KME1 060726Z 18012G17KT 27/15 A2998 RMK A01 T02710145  RH  046%=      5-min Rain = 0
KME1 060727Z 18009KT 27/15 A2998 RMK A01 T02700145  RH  046%=      5-min Rain = 0
KME1 060728Z 17012G17KT 27/15 A2998 RMK A01 T02700145  RH  046%=      5-min Rain = 0
KME1 060729Z 18012KT 27/14 A2998 RMK A01 T02700144  RH  046%=      5-min Rain = 0
KME1 060730Z 18011KT 27/15 A2998 RMK A01 T02700145  RH  046%=      5-min Rain = 0
KME1 060731Z 18010KT 27/15 A2998 RMK A01 T02700145  RH  046%=      5-min Rain = 0
KME1 060732Z 17012KT 27/15 A2998 RMK A01 T02700145  RH  046%=      5-min Rain = 0
KME1 060733Z 17009KT 27/15 A2998 RMK A01 T02690145  RH  046%=      5-min Rain = 0
KME1 060734Z 17014G19KT 27/15 A2998 RMK A01 T02690145  RH  046%=      5-min Rain = 0
KME1 060735Z 17011KT 27/15 A2998 RMK A01 T02690145  RH  046%=      5-min Rain = 0
KME1 060736Z 18012KT 27/15 A2998 RMK A01 T02700145  RH  046%=      5-min Rain = 0
KME1 060737Z 18013KT 27/15 A2998 RMK A01 T02700146  RH  047%=      5-min Rain = 0
KME1 060738Z 18012KT 27/15 A2998 RMK A01 T02690145  RH  046%=      5-min Rain = 0
KME1 060739Z 18013KT 27/15 A2998 RMK A01 T02700145  RH  047%=      5-min Rain = 0
KME1 060740Z 18012KT 27/15 A2998 RMK A01 T02690146  RH  047%=      5-min Rain = 0
KME1 060741Z 17012G17KT 27/15 A2998 RMK A01 T02690146  RH  047%=      5-min Rain = 0
KME1 060742Z 18012KT 27/15 A2998 RMK A01 T02690146  RH  047%=      5-min Rain = 0
KME1 060743Z 18011KT 27/15 A2998 RMK A01 T02690146  RH  047%=      5-min Rain = 0
KME1 060744Z 17011KT 27/15 A2998 RMK A01 T02680146  RH  047%=      5-min Rain = 0
KME1 060745Z 18012KT 27/15 A2998 RMK A01 T02680146  RH  047%=      5-min Rain = 0
KME1 060746Z 18012KT 27/15 A2998 RMK A01 T02680146  RH  047%=      5-min Rain = 0
KME1 060747Z 18013KT 27/15 A2998 RMK A01 T02680146  RH  047%=      5-min Rain = 0
KME1 060748Z 18012KT 27/15 A2998 RMK A01 T02680146  RH  047%=      5-min Rain = 0
KME1 060749Z 18009G15KT 27/15 A2998 RMK A01 T02680146  RH  047%=      5-min Rain = 0
KME1 060750Z 18012KT 27/15 A2998 RMK A01 T02670146  RH  047%=      5-min Rain = 0
KME1 060751Z 18011KT 27/15 A2998 RMK A01 T02670147  RH  048%=      5-min Rain = 0
KME1 060752Z 18011KT 27/15 A2998 RMK A01 T02670147  RH  048%=      5-min Rain = 0
KME1 060753Z 18011KT 27/15 A2998 RMK A01 T02670147  RH  048%=      5-min Rain = 0
KME1 060754Z 18011KT 27/15 A2998 RMK A01 T02660147  RH  048%=      5-min Rain = 0
KME1 060755Z 17010KT 27/15 A2998 RMK A01 T02660147  RH  048%=      5-min Rain = 0
KME1 060756Z 17012KT 27/15 A2998 RMK A01 T02660148  RH  048%=      5-min Rain = 0
KME1 060757Z 18014KT 27/15 A2998 RMK A01 T02660148  RH  048%=      5-min Rain = 0
KME1 060758Z 17012KT 27/15 A2998 RMK A01 T02660147  RH  048%=      5-min Rain = 0
KME1 060759Z 17011KT 27/15 A2998 RMK A01 T02660147  RH  048%=      5-min Rain = 0
KME1 060800Z 17009KT 27/15 A2998 RMK A01 T02660148  RH  048%=      5-min Rain = 0
KME1 060801Z 18011KT 27/15 A2998 RMK A01 T02660148  RH  048%=      5-min Rain = 0
KME1 060802Z 18010KT 27/15 A2998 RMK A01 T02660148  RH  048%=      5-min Rain = 0
KME1 060803Z 18012KT 27/15 A2998 RMK A01 T02650148  RH  049%=      5-min Rain = 0
KME1 060804Z 17012KT 27/15 A2998 RMK A01 T02650149  RH  049%=      5-min Rain = 0
KME1 060805Z 18009KT 27/15 A2998 RMK A01 T02660149  RH  049%=      5-min Rain = 0
KME1 060806Z 18009G15KT 27/15 A2998 RMK A01 T02660149  RH  049%=      5-min Rain = 0
KME1 060807Z 18013KT 27/15 A2998 RMK A01 T02650149  RH  049%=      5-min Rain = 0
KME1 060808Z 18012KT 27/15 A2998 RMK A01 T02660149  RH  049%=      5-min Rain = 0
KME1 060809Z 18013KT 27/15 A2998 RMK A01 T02660150  RH  049%=      5-min Rain = 0
KME1 060810Z 18012KT 27/15 A2998 RMK A01 T02660150  RH  049%=      5-min Rain = 0
KME1 060811Z 18012KT 27/15 A2998 RMK A01 T02660150  RH  049%=      5-min Rain = 0
KME1 060812Z 18013KT 27/15 A2998 RMK A01 T02660150  RH  049%=      5-min Rain = 0
KME1 060813Z 17010KT 27/15 A2998 RMK A01 T02660150  RH  049%=      5-min Rain = 0
KME1 060814Z 18011KT 27/15 A2998 RMK A01 T02660150  RH  049%=      5-min Rain = 0
KME1 060815Z 18011KT 27/15 A2998 RMK A01 T02660151  RH  049%=      5-min Rain = 0
KME1 060816Z 17012KT 27/15 A2998 RMK A01 T02650151  RH  049%=      5-min Rain = 0
KME1 060817Z 17015KT 27/15 A2998 RMK A01 T02650151  RH  049%=      5-min Rain = 0
KME1 060818Z 18013KT 27/15 A2998 RMK A01 T02660151  RH  049%=      5-min Rain = 0
KME1 060819Z 18013KT 27/15 A2998 RMK A01 T02650151  RH  049%=      5-min Rain = 0
KME1 060820Z 18013KT 27/15 A2998 RMK A01 T02650151  RH  049%=      5-min Rain = 0
KME1 060821Z 17013KT 27/15 A2998 RMK A01 T02660151  RH  049%=      5-min Rain = 0
KME1 060822Z 17011KT 27/15 A2998 RMK A01 T02650151  RH  049%=      5-min Rain = 0
KME1 060823Z 17010KT 27/15 A2998 RMK A01 T02650151  RH  050%=      5-min Rain = 0
KME1 060824Z 18014KT 26/15 A2998 RMK A01 T02640151  RH  050%=      5-min Rain = 0
KME1 060825Z 17013KT 26/15 A2998 RMK A01 T02640152  RH  050%=      5-min Rain = 0
KME1 060826Z 17011KT 27/15 A2998 RMK A01 T02650152  RH  050%=      5-min Rain = 0
KME1 060827Z 17011KT 27/15 A2998 RMK A01 T02650152  RH  050%=      5-min Rain = 0
KME1 060828Z 17012KT 26/15 A2998 RMK A01 T02640152  RH  050%=      5-min Rain = 0
KME1 060829Z 17012KT 27/15 A2998 RMK A01 T02650152  RH  050%=      5-min Rain = 0
KME1 060830Z 17011KT 26/15 A2998 RMK A01 T02640152  RH  050%=      5-min Rain = 0
KME1 060831Z 17013KT 26/15 A2998 RMK A01 T02640152  RH  050%=      5-min Rain = 0
KME1 060832Z 17013KT 26/15 A2998 RMK A01 T02640153  RH  050%=      5-min Rain = 0
KME1 060833Z 17012KT 27/15 A2999 RMK A01 T02650153  RH  050%=      5-min Rain = 0
KME1 060834Z 17011KT 26/15 A2999 RMK A01 T02640153  RH  050%=      5-min Rain = 0
KME1 060835Z 18014G19KT 26/15 A2999 RMK A01 T02640153  RH  050%=      5-min Rain = 0
KME1 060836Z 18014KT 26/15 A2999 RMK A01 T02640153  RH  050%=      5-min Rain = 0
KME1 060837Z 17013KT 26/15 A2999 RMK A01 T02640153  RH  050%=      5-min Rain = 0
KME1 060838Z 18013G18KT 26/15 A2999 RMK A01 T02640153  RH  050%=      5-min Rain = 0
KME1 060839Z 18010KT 26/15 A2999 RMK A01 T02640153  RH  050%=      5-min Rain = 0
KME1 060840Z 18013KT 26/15 A2999 RMK A01 T02640154  RH  051%=      5-min Rain = 0
KME1 060841Z 18013KT 26/15 A2999 RMK A01 T02640154  RH  051%=      5-min Rain = 0
KME1 060842Z 18015KT 26/15 A2999 RMK A01 T02640154  RH  051%=      5-min Rain = 0
KME1 060843Z 18013KT 26/15 A2999 RMK A01 T02640154  RH  051%=      5-min Rain = 0
KME1 060844Z 19013KT 26/15 A2999 RMK A01 T02640154  RH  051%=      5-min Rain = 0
KME1 060845Z 18011KT 26/16 A2999 RMK A01 T02640155  RH  051%=      5-min Rain = 0
KME1 060846Z 18012KT 26/16 A2999 RMK A01 T02640155  RH  051%=      5-min Rain = 0
KME1 060847Z 18013KT 26/16 A2999 RMK A01 T02640155  RH  051%=      5-min Rain = 0
KME1 060848Z 18010KT 26/16 A2999 RMK A01 T02640155  RH  051%=      5-min Rain = 0
KME1 060849Z 17009KT 26/16 A2999 RMK A01 T02630155  RH  051%=      5-min Rain = 0
KME1 060850Z 18012G18KT 26/16 A2999 RMK A01 T02630155  RH  052%=      5-min Rain = 0
KME1 060851Z 18012KT 26/16 A2999 RMK A01 T02620155  RH  052%=      5-min Rain = 0
KME1 060852Z 18011KT 26/16 A2999 RMK A01 T02630156  RH  052%=      5-min Rain = 0
KME1 060853Z 18009KT 26/16 A2999 RMK A01 T02630156  RH  052%=      5-min Rain = 0
KME1 060854Z 19011KT 26/16 A2999 RMK A01 T02620156  RH  052%=      5-min Rain = 0
KME1 060855Z 18011KT 26/16 A2999 RMK A01 T02620156  RH  052%=      5-min Rain = 0
KME1 060856Z 18011KT 26/16 A2999 RMK A01 T02620156  RH  052%=      5-min Rain = 0
KME1 060857Z 18010KT 26/16 A2999 RMK A01 T02620156  RH  052%=      5-min Rain = 0
KME1 060858Z 18013G19KT 26/16 A2999 RMK A01 T02620157  RH  052%=      5-min Rain = 0
KME1 060859Z 18014KT 26/16 A2999 RMK A01 T02620157  RH  052%=      5-min Rain = 0
KME1 060900Z 18012KT 26/16 A2999 RMK A01 T02620157  RH  052%=      5-min Rain = 0
KME1 060901Z 19011KT 26/16 A2999 RMK A01 T02620157  RH  052%=      5-min Rain = 0
KME1 060902Z 18011KT 26/16 A2999 RMK A01 T02620157  RH  053%=      5-min Rain = 0
KME1 060903Z 18012KT 26/16 A2999 RMK A01 T02610157  RH  053%=      5-min Rain = 0
KME1 060904Z 19014KT 26/16 A2999 RMK A01 T02610158  RH  053%=      5-min Rain = 0
KME1 060905Z 18012KT 26/16 A2999 RMK A01 T02620158  RH  053%=      5-min Rain = 0
KME1 060906Z 19010KT 26/16 A2999 RMK A01 T02610158  RH  053%=      5-min Rain = 0
KME1 060907Z 18011KT 26/16 A2999 RMK A01 T02610158  RH  053%=      5-min Rain = 0
KME1 060908Z 19012KT 26/16 A2999 RMK A01 T02610159  RH  053%=      5-min Rain = 0
KME1 060909Z 18012KT 26/16 A2999 RMK A01 T02600159  RH  053%=      5-min Rain = 0
KME1 060910Z 18010KT 26/16 A2999 RMK A01 T02600159  RH  053%=      5-min Rain = 0
KME1 060911Z 18010KT 26/16 A2999 RMK A01 T02600159  RH  054%=      5-min Rain = 0
KME1 060912Z 18013KT 26/16 A2999 RMK A01 T02600159  RH  054%=      5-min Rain = 0
KME1 060913Z 18013KT 26/16 A2998 RMK A01 T02590159  RH  054%=      5-min Rain = 0
KME1 060914Z 18012KT 26/16 A2999 RMK A01 T02600160  RH  054%=      5-min Rain = 0
KME1 060915Z 18011KT 26/16 A2999 RMK A01 T02600160  RH  054%=      5-min Rain = 0
KME1 060916Z 18011KT 26/16 A2999 RMK A01 T02600160  RH  054%=      5-min Rain = 0
KME1 060917Z 18011KT 26/16 A2999 RMK A01 T02600160  RH  054%=      5-min Rain = 0
KME1 060918Z 18011KT 26/16 A2999 RMK A01 T02600160  RH  054%=      5-min Rain = 0
KME1 060919Z 19011KT 26/16 A2999 RMK A01 T02590161  RH  054%=      5-min Rain = 0
KME1 060920Z 18013G18KT 26/16 A2999 RMK A01 T02590161  RH  055%=      5-min Rain = 0
KME1 060921Z 17013KT 26/16 A2999 RMK A01 T02590161  RH  055%=      5-min Rain = 0
KME1 060922Z 18011KT 26/16 A2999 RMK A01 T02590161  RH  055%=      5-min Rain = 0
KME1 060923Z 18008KT 26/16 A2999 RMK A01 T02590162  RH  055%=      5-min Rain = 0
KME1 060924Z 18012KT 26/16 A2999 RMK A01 T02590162  RH  055%=      5-min Rain = 0
KME1 060925Z 17012KT 26/16 A2999 RMK A01 T02590162  RH  055%=      5-min Rain = 0
KME1 060926Z 17010KT 26/16 A2999 RMK A01 T02590162  RH  055%=      5-min Rain = 0
KME1 060927Z 18009KT 26/16 A2999 RMK A01 T02580162  RH  055%=      5-min Rain = 0
KME1 060928Z 18012KT 26/16 A2999 RMK A01 T02580162  RH  055%=      5-min Rain = 0
KME1 060929Z 19011KT 26/16 A2999 RMK A01 T02580163  RH  056%=      5-min Rain = 0
KME1 060930Z 18009KT 26/16 A2999 RMK A01 T02580163  RH  056%=      5-min Rain = 0
KME1 060931Z 18010KT 26/16 A2999 RMK A01 T02580163  RH  056%=      5-min Rain = 0
KME1 060932Z 18008KT 26/16 A2999 RMK A01 T02570163  RH  056%=      5-min Rain = 0
KME1 060933Z 18008KT 26/16 A2999 RMK A01 T02570163  RH  056%=      5-min Rain = 0
KME1 060934Z 18008KT 26/16 A2999 RMK A01 T02570163  RH  056%=      5-min Rain = 0
KME1 060935Z 18009KT 26/16 A2999 RMK A01 T02560163  RH  056%=      5-min Rain = 0
KME1 060936Z 18009KT 26/16 A2999 RMK A01 T02560163  RH  057%=      5-min Rain = 0
KME1 060937Z 18009KT 26/16 A2999 RMK A01 T02560164  RH  057%=      5-min Rain = 0
KME1 060938Z 18011KT 26/16 A2999 RMK A01 T02560164  RH  057%=      5-min Rain = 0
KME1 060939Z 18009KT 26/16 A2999 RMK A01 T02560164  RH  057%=      5-min Rain = 0
KME1 060940Z 18012KT 26/16 A2999 RMK A01 T02560164  RH  057%=      5-min Rain = 0
KME1 060941Z 18012KT 26/16 A2999 RMK A01 T02560164  RH  057%=      5-min Rain = 0
KME1 060942Z 18010KT 26/16 A2999 RMK A01 T02560164  RH  057%=      5-min Rain = 0
KME1 060943Z 18011KT 26/16 A2999 RMK A01 T02560164  RH  057%=      5-min Rain = 0
KME1 060944Z 18009KT 26/16 A2999 RMK A01 T02560164  RH  057%=      5-min Rain = 0
KME1 060945Z 18008KT 26/16 A2999 RMK A01 T02560164  RH  057%=      5-min Rain = 0
KME1 060946Z 18009KT 26/16 A2999 RMK A01 T02550164  RH  057%=      5-min Rain = 0
KME1 060947Z 17010KT 25/16 A2999 RMK A01 T02540164  RH  057%=      5-min Rain = 0
KME1 060948Z 18008KT 25/16 A2999 RMK A01 T02540164  RH  057%=      5-min Rain = 0
KME1 060949Z 18009KT 26/17 A2999 RMK A01 T02550165  RH  058%=      5-min Rain = 0
KME1 060950Z 18009KT 25/17 A2999 RMK A01 T02540165  RH  058%=      5-min Rain = 0
KME1 060951Z 17010KT 25/17 A2999 RMK A01 T02540165  RH  058%=      5-min Rain = 0
KME1 060952Z 18009KT 25/17 A2999 RMK A01 T02540165  RH  058%=      5-min Rain = 0
KME1 060953Z 18010KT 25/17 A2999 RMK A01 T02540165  RH  058%=      5-min Rain = 0
KME1 060954Z 17009KT 25/17 A30 RMK A01 T02540165  RH  058%=      5-min Rain = 0
KME1 060955Z 18007KT 26/17 A30 RMK A01 T02550166  RH  058%=      5-min Rain = 0
KME1 060956Z 17008KT 25/17 A30 RMK A01 T02540165  RH  058%=      5-min Rain = 0
KME1 060957Z 17008KT 25/17 A30 RMK A01 T02540166  RH  058%=      5-min Rain = 0
KME1 060958Z 17009KT 25/17 A30 RMK A01 T02530166  RH  058%=      5-min Rain = 0
KME1 060959Z 17009KT 25/17 A30 RMK A01 T02530165  RH  058%=      5-min Rain = 0
KME1 061000Z 18009KT 25/17 A30 RMK A01 T02530166  RH  058%=      5-min Rain = 0
KME1 061001Z 17007KT 25/17 A30 RMK A01 T02530166  RH  058%=      5-min Rain = 0
KME1 061002Z 18007KT 25/17 A30 RMK A01 T02530166  RH  058%=      5-min Rain = 0
KME1 061003Z 18010KT 25/17 A30 RMK A01 T02530166  RH  059%=      5-min Rain = 0
KME1 061004Z 18008KT 25/17 A30 RMK A01 T02530166  RH  059%=      5-min Rain = 0
KME1 061005Z 18007KT 25/17 A30 RMK A01 T02530166  RH  059%=      5-min Rain = 0
KME1 061006Z 18009KT 25/17 A30 RMK A01 T02520166  RH  059%=      5-min Rain = 0
KME1 061007Z 17007KT 25/17 A30 RMK A01 T02520166  RH  059%=      5-min Rain = 0
KME1 061008Z 18007KT 25/17 A30 RMK A01 T02520166  RH  059%=      5-min Rain = 0
KME1 061009Z 18008KT 25/17 A30 RMK A01 T02520167  RH  059%=      5-min Rain = 0
KME1 061010Z 18008KT 25/17 A30 RMK A01 T02520167  RH  059%=      5-min Rain = 0
KME1 061011Z 18006KT 25/17 A30 RMK A01 T02520167  RH  059%=      5-min Rain = 0
KME1 061012Z 18007KT 25/17 A30 RMK A01 T02510167  RH  059%=      5-min Rain = 0
KME1 061013Z 17007KT 25/17 A30 RMK A01 T02510167  RH  060%=      5-min Rain = 0
KME1 061014Z 17005KT 25/17 A30 RMK A01 T02510167  RH  060%=      5-min Rain = 0
KME1 061015Z 18008KT 25/17 A30 RMK A01 T02500167  RH  060%=      5-min Rain = 0
KME1 061016Z 17007KT 25/17 A30 RMK A01 T02500167  RH  060%=      5-min Rain = 0
KME1 061017Z 18007KT 25/17 A30 RMK A01 T02500167  RH  060%=      5-min Rain = 0
KME1 061018Z 17008KT 25/17 A30 RMK A01 T02500167  RH  060%=      5-min Rain = 0
KME1 061019Z 18007KT 25/17 A30 RMK A01 T02500168  RH  060%=      5-min Rain = 0
KME1 061020Z 17008KT 25/17 A30 RMK A01 T02500168  RH  060%=      5-min Rain = 0
KME1 061021Z 18007KT 25/17 A30 RMK A01 T02500167  RH  060%=      5-min Rain = 0
KME1 061022Z 17006KT 25/17 A30 RMK A01 T02500167  RH  060%=      5-min Rain = 0
KME1 061023Z 17008KT 25/17 A30 RMK A01 T02500168  RH  060%=      5-min Rain = 0
KME1 061024Z 18008KT 25/17 A30 RMK A01 T02500168  RH  060%=      5-min Rain = 0
KME1 061025Z 18008KT 25/17 A30 RMK A01 T02490168  RH  061%=      5-min Rain = 0
KME1 061026Z 17009KT 25/17 A30 RMK A01 T02490168  RH  061%=      5-min Rain = 0
KME1 061027Z 18008KT 25/17 A30 RMK A01 T02490168  RH  061%=      5-min Rain = 0
KME1 061028Z 17007KT 25/17 A30 RMK A01 T02490168  RH  061%=      5-min Rain = 0
KME1 061029Z 17008KT 25/17 A30 RMK A01 T02490169  RH  061%=      5-min Rain = 0
KME1 061030Z 18010KT 25/17 A30 RMK A01 T02490169  RH  061%=      5-min Rain = 0
KME1 061031Z 18009KT 25/17 A30 RMK A01 T02490169  RH  061%=      5-min Rain = 0
KME1 061032Z 17009KT 25/17 A30 RMK A01 T02490169  RH  061%=      5-min Rain = 0
KME1 061033Z 17009KT 25/17 A30 RMK A01 T02490169  RH  061%=      5-min Rain = 0
KME1 061034Z 17009KT 25/17 A30 RMK A01 T02490169  RH  061%=      5-min Rain = 0
KME1 061035Z 17008KT 25/17 A30 RMK A01 T02490169  RH  061%=      5-min Rain = 0
KME1 061036Z 17009KT 25/17 A30 RMK A01 T02490169  RH  061%=      5-min Rain = 0
KME1 061037Z 17008KT 25/17 A30 RMK A01 T02490169  RH  061%=      5-min Rain = 0
KME1 061038Z 17009KT 25/17 A30 RMK A01 T02490170  RH  061%=      5-min Rain = 0
KME1 061039Z 17008KT 25/17 A30 RMK A01 T02490170  RH  062%=      5-min Rain = 0
KME1 061040Z 18008KT 25/17 A30 RMK A01 T02490170  RH  062%=      5-min Rain = 0
KME1 061041Z 18007KT 25/17 A30 RMK A01 T02480170  RH  062%=      5-min Rain = 0
KME1 061042Z 18009KT 25/17 A30 RMK A01 T02480170  RH  062%=      5-min Rain = 0
KME1 061043Z 17008KT 25/17 A30 RMK A01 T02470170  RH  062%=      5-min Rain = 0
KME1 061044Z 17007KT 25/17 A30 RMK A01 T02480171  RH  062%=      5-min Rain = 0
KME1 061045Z 17009KT 25/17 A30 RMK A01 T02470171  RH  062%=      5-min Rain = 0
KME1 061046Z 18009KT 25/17 A30 RMK A01 T02470170  RH  062%=      5-min Rain = 0
KME1 061047Z 18008KT 25/17 A30 RMK A01 T02470171  RH  063%=      5-min Rain = 0
KME1 061048Z 18009KT 25/17 A30 RMK A01 T02470171  RH  063%=      5-min Rain = 0
KME1 061049Z 18007KT 25/17 A30 RMK A01 T02470171  RH  063%=      5-min Rain = 0
KME1 061050Z 18008KT 25/17 A30 RMK A01 T02470171  RH  063%=      5-min Rain = 0
KME1 061051Z 18008KT 25/17 A30 RMK A01 T02460171  RH  063%=      5-min Rain = 0
KME1 061052Z 18009KT 25/17 A30 RMK A01 T02460171  RH  063%=      5-min Rain = 0
KME1 061053Z 17008KT 25/17 A30 RMK A01 T02460172  RH  063%=      5-min Rain = 0
KME1 061054Z 17008KT 25/17 A30 RMK A01 T02460172  RH  063%=      5-min Rain = 0
KME1 061055Z 17010KT 25/17 A30 RMK A01 T02460172  RH  064%=      5-min Rain = 0
KME1 061056Z 18009KT 25/17 A30 RMK A01 T02450172  RH  064%=      5-min Rain = 0
KME1 061057Z 17010KT 25/17 A30 RMK A01 T02460172  RH  064%=      5-min Rain = 0
KME1 061058Z 17007KT 25/17 A30 RMK A01 T02460172  RH  064%=      5-min Rain = 0
KME1 061059Z 17006KT 25/17 A30 RMK A01 T02450172  RH  064%=      5-min Rain = 0
KME1 061100Z 17006KT 25/17 A30 RMK A01 T02450172  RH  064%=      5-min Rain = 0
KME1 061101Z 18008KT 24/17 A30 RMK A01 T02440172  RH  064%=      5-min Rain = 0
KME1 061102Z 17008KT 24/17 A30 RMK A01 T02440172  RH  064%=      5-min Rain = 0
KME1 061103Z 17007KT 24/17 A30 RMK A01 T02440173  RH  065%=      5-min Rain = 0
KME1 061104Z 17008KT 24/17 A30 RMK A01 T02440173  RH  065%=      5-min Rain = 0
KME1 061105Z 18009KT 24/17 A30 RMK A01 T02440174  RH  065%=      5-min Rain = 0
KME1 061106Z 18009KT 24/17 A30 RMK A01 T02440174  RH  065%=      5-min Rain = 0
KME1 061107Z 18009KT 24/17 A30 RMK A01 T02440174  RH  065%=      5-min Rain = 0
KME1 061108Z 18008KT 24/17 A30 RMK A01 T02440174  RH  065%=      5-min Rain = 0
KME1 061109Z 18008KT 24/18 A3001 RMK A01 T02440175  RH  065%=      5-min Rain = 0
KME1 061110Z 18008KT 24/17 A3001 RMK A01 T02440174  RH  065%=      5-min Rain = 0
KME1 061111Z 18006KT 24/18 A3001 RMK A01 T02440175  RH  065%=      5-min Rain = 0
KME1 061112Z 18008KT 24/18 A3001 RMK A01 T02430175  RH  066%=      5-min Rain = 0
KME1 061113Z 17009KT 24/18 A3001 RMK A01 T02430175  RH  066%=      5-min Rain = 0
KME1 061114Z 18008KT 24/18 A3001 RMK A01 T02430175  RH  066%=      5-min Rain = 0
KME1 061115Z 18009KT 24/18 A3001 RMK A01 T02430175  RH  066%=      5-min Rain = 0
KME1 061116Z 17009KT 24/18 A3001 RMK A01 T02430175  RH  066%=      5-min Rain = 0
KME1 061117Z 18009KT 24/18 A3001 RMK A01 T02430176  RH  066%=      5-min Rain = 0
KME1 061118Z 18007KT 24/18 A3001 RMK A01 T02430176  RH  066%=      5-min Rain = 0
KME1 061119Z 17006KT 24/18 A3001 RMK A01 T02430176  RH  066%=      5-min Rain = 0
KME1 061120Z 18007KT 24/18 A3001 RMK A01 T02420176  RH  067%=      5-min Rain = 0
KME1 061121Z 18007KT 24/18 A3001 RMK A01 T02410176  RH  067%=      5-min Rain = 0
KME1 061122Z 18008KT 24/18 A3001 RMK A01 T02410176  RH  067%=      5-min Rain = 0
KME1 061123Z 17007KT 24/18 A3001 RMK A01 T02410177  RH  067%=      5-min Rain = 0
KME1 061124Z 18007KT 24/18 A3001 RMK A01 T02410177  RH  067%=      5-min Rain = 0
KME1 061125Z 17006KT 24/18 A3001 RMK A01 T02410177  RH  067%=      5-min Rain = 0
KME1 061126Z 17007KT 24/18 A3001 RMK A01 T02410177  RH  067%=      5-min Rain = 0
KME1 061127Z 18006KT 24/18 A3001 RMK A01 T02410177  RH  068%=      5-min Rain = 0
KME1 061128Z 17007KT 24/18 A3001 RMK A01 T02410178  RH  068%=      5-min Rain = 0
KME1 061129Z 17006KT 24/18 A3001 RMK A01 T02400177  RH  068%=      5-min Rain = 0
KME1 061130Z 18006KT 24/18 A3001 RMK A01 T02410178  RH  068%=      5-min Rain = 0
KME1 061131Z 18008KT 24/18 A3001 RMK A01 T02410178  RH  068%=      5-min Rain = 0
KME1 061132Z 17006KT 24/18 A3001 RMK A01 T02410178  RH  068%=      5-min Rain = 0
KME1 061133Z 17007KT 24/18 A3001 RMK A01 T02410178  RH  068%=      5-min Rain = 0
KME1 061134Z 18008KT 24/18 A3001 RMK A01 T02400179  RH  068%=      5-min Rain = 0
KME1 061135Z 17007KT 24/18 A3001 RMK A01 T02400179  RH  069%=      5-min Rain = 0
KME1 061136Z 17006KT 24/18 A3001 RMK A01 T02400179  RH  069%=      5-min Rain = 0
KME1 061137Z 18008KT 24/18 A3001 RMK A01 T02400180  RH  069%=      5-min Rain = 0
KME1 061138Z 17006KT 24/18 A3001 RMK A01 T02400180  RH  069%=      5-min Rain = 0
KME1 061139Z 17007KT 24/18 A3001 RMK A01 T02400180  RH  069%=      5-min Rain = 0
KME1 061140Z 17006KT 24/18 A3001 RMK A01 T02400179  RH  069%=      5-min Rain = 0
KME1 061141Z 17008KT 24/18 A3001 RMK A01 T02390180  RH  069%=      5-min Rain = 0
KME1 061142Z 17008KT 24/18 A3001 RMK A01 T02390180  RH  070%=      5-min Rain = 0
KME1 061143Z 18007KT 24/18 A3001 RMK A01 T02390180  RH  069%=      5-min Rain = 0
KME1 061144Z 18008KT 24/18 A3001 RMK A01 T02390180  RH  070%=      5-min Rain = 0
KME1 061145Z 17008KT 24/18 A3001 RMK A01 T02390181  RH  070%=      5-min Rain = 0
KME1 061146Z 18008KT 24/18 A3001 RMK A01 T02390181  RH  070%=      5-min Rain = 0
KME1 061147Z 17007KT 24/18 A3001 RMK A01 T02390181  RH  070%=      5-min Rain = 0
KME1 061148Z 17008KT 24/18 A3001 RMK A01 T02390180  RH  070%=      5-min Rain = 0
KME1 061149Z 17009KT 24/18 A3001 RMK A01 T02390181  RH  070%=      5-min Rain = 0
KME1 061150Z 18007KT 24/18 A3001 RMK A01 T02390181  RH  070%=      5-min Rain = 0
KME1 061151Z 17008KT 24/18 A3001 RMK A01 T02390181  RH  070%=      5-min Rain = 0
KME1 061152Z 18008KT 24/18 A3001 RMK A01 T02390182  RH  070%=      5-min Rain = 0
KME1 061153Z 18008KT 24/18 A3001 RMK A01 T02390182  RH  071%=      5-min Rain = 0
KME1 061154Z 17007KT 24/18 A3001 RMK A01 T02390183  RH  071%=      5-min Rain = 0
KME1 061155Z 18007KT 24/18 A3001 RMK A01 T02380182  RH  071%=      5-min Rain = 0
KME1 061156Z 17007KT 24/18 A3001 RMK A01 T02380182  RH  071%=      5-min Rain = 0
KME1 061157Z 17008KT 24/18 A3001 RMK A01 T02380182  RH  071%=      5-min Rain = 0
KME1 061158Z 18009KT 24/18 A3001 RMK A01 T02380183  RH  071%=      5-min Rain = 0
KME1 061159Z 17007KT 24/18 A3001 RMK A01 T02380183  RH  071%=      5-min Rain = 0
KME1 061200Z 17008KT 24/18 A3001 RMK A01 T02370183  RH  071%=      5-min Rain = 0
KME1 061201Z 17007KT 24/18 A3001 RMK A01 T02370183  RH  071%=      5-min Rain = 0
KME1 061202Z 17008KT 24/18 A3001 RMK A01 T02370183  RH  072%=      5-min Rain = 0
KME1 061203Z 17008KT 24/18 A3001 RMK A01 T02370183  RH  072%=      5-min Rain = 0
KME1 061204Z 17008KT 24/18 A3001 RMK A01 T02370183  RH  072%=      5-min Rain = 0
KME1 061205Z 17007KT 24/18 A3001 RMK A01 T02360184  RH  072%=      5-min Rain = 0
KME1 061206Z 17007KT 24/18 A3001 RMK A01 T02360183  RH  072%=      5-min Rain = 0
KME1 061207Z 17007KT 24/18 A3001 RMK A01 T02360183  RH  072%=      5-min Rain = 0
KME1 061208Z 17007KT 24/18 A3001 RMK A01 T02360184  RH  073%=      5-min Rain = 0
KME1 061209Z 17006KT 24/18 A3001 RMK A01 T02360184  RH  073%=      5-min Rain = 0
KME1 061210Z 18007KT 24/18 A3001 RMK A01 T02360184  RH  073%=      5-min Rain = 0
KME1 061211Z 17007KT 24/18 A3001 RMK A01 T02360184  RH  073%=      5-min Rain = 0
KME1 061212Z 18006KT 24/19 A3001 RMK A01 T02360185  RH  073%=      5-min Rain = 0
KME1 061213Z 18007KT 24/19 A3001 RMK A01 T02350185  RH  073%=      5-min Rain = 0
KME1 061214Z 18007KT 24/19 A3001 RMK A01 T02360186  RH  073%=      5-min Rain = 0
KME1 061215Z 18009KT 24/19 A3001 RMK A01 T02360186  RH  073%=      5-min Rain = 0
KME1 061216Z 18007KT 24/19 A3001 RMK A01 T02360186  RH  073%=      5-min Rain = 0
KME1 061217Z 17007KT 24/19 A3001 RMK A01 T02370186  RH  073%=      5-min Rain = 0
KME1 061218Z 18006KT 24/19 A3002 RMK A01 T02360186  RH  073%=      5-min Rain = 0
KME1 061219Z 18007KT 24/19 A3002 RMK A01 T02360186  RH  074%=      5-min Rain = 0
KME1 061220Z 18008KT 24/19 A3002 RMK A01 T02360187  RH  074%=      5-min Rain = 0
KME1 061221Z 18008KT 24/19 A3002 RMK A01 T02360187  RH  074%=      5-min Rain = 0
KME1 061222Z 18007KT 24/19 A3002 RMK A01 T02360187  RH  074%=      5-min Rain = 0
KME1 061223Z 19008KT 24/19 A3002 RMK A01 T02360187  RH  074%=      5-min Rain = 0
KME1 061224Z 18007KT 24/19 A3002 RMK A01 T02360188  RH  074%=      5-min Rain = 0
KME1 061225Z 19006KT 24/19 A3002 RMK A01 T02360188  RH  074%=      5-min Rain = 0
KME1 061226Z 18007KT 24/19 A3002 RMK A01 T02360188  RH  074%=      5-min Rain = 0
KME1 061227Z 18007KT 24/19 A3002 RMK A01 T02370188  RH  074%=      5-min Rain = 0
KME1 061228Z 18008KT 24/19 A3002 RMK A01 T02360188  RH  074%=      5-min Rain = 0
KME1 061229Z 18006KT 24/19 A3002 RMK A01 T02370188  RH  074%=      5-min Rain = 0
KME1 061230Z 19007KT 24/19 A3002 RMK A01 T02370188  RH  074%=      5-min Rain = 0
KME1 061231Z 18007KT 24/19 A3002 RMK A01 T02370189  RH  074%=      5-min Rain = 0
KME1 061232Z 18007KT 24/19 A3002 RMK A01 T02370189  RH  074%=      5-min Rain = 0
KME1 061233Z 18008KT 24/19 A3002 RMK A01 T02370189  RH  074%=      5-min Rain = 0
KME1 061234Z 18008KT 24/19 A3002 RMK A01 T02380189  RH  074%=      5-min Rain = 0
KME1 061235Z 18006KT 24/19 A3002 RMK A01 T02380189  RH  074%=      5-min Rain = 0
KME1 061236Z 19009KT 24/19 A3002 RMK A01 T02380190  RH  074%=      5-min Rain = 0
KME1 061237Z 19008KT 24/19 A3002 RMK A01 T02380190  RH  074%=      5-min Rain = 0
KME1 061238Z 18007KT 24/19 A3002 RMK A01 T02390190  RH  074%=      5-min Rain = 0
KME1 061239Z 18007KT 24/19 A3002 RMK A01 T02390191  RH  074%=      5-min Rain = 0
KME1 061240Z 19006KT 24/19 A3002 RMK A01 T02390191  RH  074%=      5-min Rain = 0
KME1 061241Z 19009KT 24/19 A3002 RMK A01 T02390191  RH  074%=      5-min Rain = 0
KME1 061242Z 18007KT 24/19 A3002 RMK A01 T02390191  RH  075%=      5-min Rain = 0
KME1 061243Z 18008KT 24/19 A3002 RMK A01 T02400192  RH  074%=      5-min Rain = 0
KME1 061244Z 18009KT 24/19 A3002 RMK A01 T02400192  RH  075%=      5-min Rain = 0
KME1 061245Z 19008KT 24/19 A3002 RMK A01 T02400192  RH  075%=      5-min Rain = 0
KME1 061246Z 18008KT 24/19 A3002 RMK A01 T02400192  RH  075%=      5-min Rain = 0
KME1 061247Z 19008KT 24/19 A3002 RMK A01 T02410193  RH  075%=      5-min Rain = 0
KME1 061248Z 19009KT 24/19 A3002 RMK A01 T02410193  RH  075%=      5-min Rain = 0
KME1 061249Z 18007KT 24/19 A3002 RMK A01 T02410193  RH  075%=      5-min Rain = 0
KME1 061250Z 19006KT 24/19 A3002 RMK A01 T02410193  RH  075%=      5-min Rain = 0
KME1 061251Z 19007KT 24/19 A3002 RMK A01 T02420194  RH  075%=      5-min Rain = 0
KME1 061252Z 19011KT 24/20 A3002 RMK A01 T02420195  RH  075%=      5-min Rain = 0
KME1 061253Z 19009KT 24/19 A3002 RMK A01 T02420194  RH  075%=      5-min Rain = 0
KME1 061254Z 18011KT 24/20 A3002 RMK A01 T02420195  RH  075%=      5-min Rain = 0
KME1 061255Z 19007KT 24/20 A3003 RMK A01 T02430196  RH  075%=      5-min Rain = 0
KME1 061256Z 18007KT 24/20 A3003 RMK A01 T02430196  RH  075%=      5-min Rain = 0
KME1 061257Z 19007KT 24/20 A3003 RMK A01 T02430196  RH  075%=      5-min Rain = 0
KME1 061258Z 18011KT 24/20 A3003 RMK A01 T02430196  RH  075%=      5-min Rain = 0
KME1 061259Z 18009KT 24/20 A3003 RMK A01 T02440197  RH  075%=      5-min Rain = 0
KME1 061300Z 19011KT 24/20 A3003 RMK A01 T02440197  RH  075%=      5-min Rain = 0
KME1 061301Z 18011KT 24/20 A3003 RMK A01 T02440198  RH  075%=      5-min Rain = 0
KME1 061302Z 19008KT 24/20 A3003 RMK A01 T02440197  RH  075%=      5-min Rain = 0
KME1 061303Z 18009KT 24/20 A3003 RMK A01 T02440198  RH  075%=      5-min Rain = 0
KME1 061304Z 18011KT 25/20 A3002 RMK A01 T02450199  RH  075%=      5-min Rain = 0
KME1 061305Z 18010KT 25/20 A3002 RMK A01 T02450199  RH  076%=      5-min Rain = 0
KME1 061306Z 18008KT 25/20 A3002 RMK A01 T02450199  RH  075%=      5-min Rain = 0
KME1 061307Z 18009KT 25/20 A3002 RMK A01 T02460199  RH  075%=      5-min Rain = 0
KME1 061308Z 18009KT 25/20 A3002 RMK A01 T02460200  RH  075%=      5-min Rain = 0
KME1 061309Z 17009KT 25/20 A3002 RMK A01 T02460200  RH  075%=      5-min Rain = 0
KME1 061310Z 17010KT 25/20 A3002 RMK A01 T02470200  RH  075%=      5-min Rain = 0
KME1 061311Z 18009KT 25/20 A3002 RMK A01 T02470201  RH  075%=      5-min Rain = 0
KME1 061312Z 17010KT 25/20 A3002 RMK A01 T02470201  RH  075%=      5-min Rain = 0
KME1 061313Z 17011KT 25/20 A3002 RMK A01 T02480201  RH  075%=      5-min Rain = 0
KME1 061314Z 17010KT 25/20 A3002 RMK A01 T02480202  RH  075%=      5-min Rain = 0
KME1 061315Z 17010KT 25/20 A3002 RMK A01 T02490202  RH  075%=      5-min Rain = 0
KME1 061316Z 18011KT 25/20 A3002 RMK A01 T02490202  RH  075%=      5-min Rain = 0
KME1 061317Z 18009KT 25/20 A3002 RMK A01 T02490202  RH  075%=      5-min Rain = 0
KME1 061318Z 18010KT 25/20 A3002 RMK A01 T02500203  RH  075%=      5-min Rain = 0
KME1 061319Z 19011KT 25/20 A3002 RMK A01 T02500203  RH  075%=      5-min Rain = 0
KME1 061320Z 19012G18KT 25/20 A3002 RMK A01 T02510203  RH  075%=      5-min Rain = 0
KME1 061321Z 19014KT 25/20 A3002 RMK A01 T02510203  RH  075%=      5-min Rain = 0
KME1 061322Z 18010G15KT 25/20 A3003 RMK A01 T02510204  RH  075%=      5-min Rain = 0
KME1 061323Z 17014G20KT 25/20 A3002 RMK A01 T02520204  RH  075%=      5-min Rain = 0
KME1 061324Z 19011KT 25/20 A3002 RMK A01 T02520204  RH  074%=      5-min Rain = 0
KME1 061325Z 20014KT 25/20 A3002 RMK A01 T02530204  RH  074%=      5-min Rain = 0
KME1 061326Z 19011G16KT 25/20 A3003 RMK A01 T02530204  RH  074%=      5-min Rain = 0
KME1 061327Z 18011G17KT 25/20 A3003 RMK A01 T02530204  RH  074%=      5-min Rain = 0
KME1 061328Z 17013KT 25/20 A3003 RMK A01 T02540204  RH  074%=      5-min Rain = 0
KME1 061329Z 19011G16KT 25/20 A3003 RMK A01 T02540204  RH  074%=      5-min Rain = 0
KME1 061330Z 19011KT 25/20 A3003 RMK A01 T02540204  RH  074%=      5-min Rain = 0
KME1 061331Z 19009KT 25/21 A3003 RMK A01 T02540205  RH  074%=      5-min Rain = 0
KME1 061332Z 18008KT 26/21 A3003 RMK A01 T02550205  RH  074%=      5-min Rain = 0
KME1 061333Z 18007KT 26/21 A3003 RMK A01 T02560205  RH  073%=      5-min Rain = 0
KME1 061334Z 19009KT 26/21 A3003 RMK A01 T02580206  RH  073%=      5-min Rain = 0
KME1 061335Z 18011KT 26/21 A3003 RMK A01 T02580206  RH  073%=      5-min Rain = 0
KME1 061336Z 18011KT 26/21 A3003 RMK A01 T02590205  RH  072%=      5-min Rain = 0
KME1 061337Z 18011G16KT 26/21 A3003 RMK A01 T02580205  RH  072%=      5-min Rain = 0
KME1 061338Z 19011KT 26/21 A3003 RMK A01 T02580205  RH  073%=      5-min Rain = 0
KME1 061339Z 18009KT 26/21 A3003 RMK A01 T02580205  RH  072%=      5-min Rain = 0
KME1 061340Z 18009KT 26/21 A3003 RMK A01 T02590206  RH  072%=      5-min Rain = 0
KME1 061341Z 18009KT 26/21 A3003 RMK A01 T02600206  RH  072%=      5-min Rain = 0
KME1 061342Z 19008KT 26/21 A3003 RMK A01 T02610206  RH  072%=      5-min Rain = 0
KME1 061343Z 20009G15KT 26/21 A3003 RMK A01 T02620206  RH  071%=      5-min Rain = 0
KME1 061344Z 19010G15KT 26/21 A3003 RMK A01 T02640206  RH  071%=      5-min Rain = 0
KME1 061345Z 18008KT 26/21 A3003 RMK A01 T02640206  RH  070%=      5-min Rain = 0
KME1 061346Z 19010KT 26/21 A3003 RMK A01 T02640206  RH  070%=      5-min Rain = 0
KME1 061347Z 19012G19KT 26/21 A3004 RMK A01 T02640206  RH  070%=      5-min Rain = 0
KME1 061348Z 20013KT 26/20 A3004 RMK A01 T02620204  RH  070%=      5-min Rain = 0
KME1 061349Z 20014KT 26/20 A3004 RMK A01 T02620204  RH  071%=      5-min Rain = 0
KME1 061350Z 19014KT 26/20 A3004 RMK A01 T02610204  RH  070%=      5-min Rain = 0
KME1 061351Z 19015KT 26/20 A3004 RMK A01 T02620203  RH  070%=      5-min Rain = 0
KME1 061352Z 19012G17KT 26/20 A3004 RMK A01 T02620203  RH  070%=      5-min Rain = 0
KME1 061353Z 20014KT 26/20 A3004 RMK A01 T02620203  RH  070%=      5-min Rain = 0
KME1 061354Z 19014G19KT 26/20 A3004 RMK A01 T02610203  RH  070%=      5-min Rain = 0
KME1 061355Z 18013G18KT 26/20 A3004 RMK A01 T02600203  RH  071%=      5-min Rain = 0
KME1 061356Z 19017G23KT 26/20 A3004 RMK A01 T02610203  RH  070%=      5-min Rain = 0
KME1 061357Z 19016KT 26/20 A3004 RMK A01 T02610202  RH  070%=      5-min Rain = 0
KME1 061358Z 20015G20KT 26/20 A3004 RMK A01 T02600202  RH  070%=      5-min Rain = 0
KME1 061359Z 18015KT 26/20 A3004 RMK A01 T02600202  RH  070%=      5-min Rain = 0
KME1 061400Z 18015KT 26/20 A3004 RMK A01 T02610202  RH  070%=      5-min Rain = 0
KME1 061401Z 19013KT 26/20 A3004 RMK A01 T02610202  RH  070%=      5-min Rain = 0
KME1 061402Z 19014KT 26/20 A3004 RMK A01 T02620202  RH  070%=      5-min Rain = 0
KME1 061403Z 19016KT 26/20 A3004 RMK A01 T02610202  RH  070%=      5-min Rain = 0
KME1 061404Z 19015KT 26/20 A3004 RMK A01 T02610202  RH  070%=      5-min Rain = 0
KME1 061405Z 19016G21KT 26/20 A3004 RMK A01 T02610202  RH  070%=      5-min Rain = 0
KME1 061406Z 18011KT 26/20 A3004 RMK A01 T02610202  RH  070%=      5-min Rain = 0
KME1 061407Z 18012KT 26/20 A3004 RMK A01 T02630203  RH  070%=      5-min Rain = 0
KME1 061408Z 19010KT 26/20 A3004 RMK A01 T02640203  RH  069%=      5-min Rain = 0
KME1 061409Z 18013G18KT 27/20 A3004 RMK A01 T02650203  RH  069%=      5-min Rain = 0
KME1 061410Z 19015KT 27/20 A3004 RMK A01 T02660203  RH  068%=      5-min Rain = 0
KME1 061411Z 19015KT 27/20 A3004 RMK A01 T02660203  RH  068%=      5-min Rain = 0
KME1 061412Z 19012KT 27/20 A3004 RMK A01 T02660203  RH  068%=      5-min Rain = 0
KME1 061413Z 18014KT 27/20 A3004 RMK A01 T02670203  RH  068%=      5-min Rain = 0
KME1 061414Z 19016KT 27/20 A3004 RMK A01 T02680203  RH  068%=      5-min Rain = 0
KME1 061415Z 18014KT 27/20 A3004 RMK A01 T02680203  RH  068%=      5-min Rain = 0
KME1 061416Z 19011KT 27/20 A3004 RMK A01 T02680203  RH  068%=      5-min Rain = 0
KME1 061417Z 19010G15KT 27/20 A3004 RMK A01 T02700204  RH  067%=      5-min Rain = 0
KME1 061418Z 18012KT 27/20 A3004 RMK A01 T02720204  RH  066%=      5-min Rain = 0
KME1 061419Z 19014KT 27/20 A3004 RMK A01 T02730203  RH  066%=      5-min Rain = 0
KME1 061420Z 19013G18KT 27/20 A3004 RMK A01 T02730203  RH  065%=      5-min Rain = 0
KME1 061421Z 20013KT 27/20 A3004 RMK A01 T02730202  RH  065%=      5-min Rain = 0
KME1 061422Z 20014G19KT 27/20 A3004 RMK A01 T02720202  RH  065%=      5-min Rain = 0
KME1 061423Z 19016KT 27/20 A3004 RMK A01 T02720202  RH  066%=      5-min Rain = 0
KME1 061424Z 19012KT 27/20 A3004 RMK A01 T02710202  RH  066%=      5-min Rain = 0
KME1 061425Z 18018KT 27/20 A3004 RMK A01 T02710201  RH  065%=      5-min Rain = 0
KME1 061426Z 18018KT 27/20 A3004 RMK A01 T02710200  RH  065%=      5-min Rain = 0
KME1 061427Z 19015KT 27/20 A3004 RMK A01 T02700200  RH  066%=      5-min Rain = 0
KME1 061428Z 19015G20KT 27/20 A3004 RMK A01 T02710200  RH  065%=      5-min Rain = 0
KME1 061429Z 19015KT 27/20 A3004 RMK A01 T02720200  RH  065%=      5-min Rain = 0
KME1 061430Z 19014G19KT 27/20 A3004 RMK A01 T02720201  RH  065%=      5-min Rain = 0
KME1 061431Z 19013G18KT 27/20 A3004 RMK A01 T02730201  RH  065%=      5-min Rain = 0
KME1 061432Z 19012KT 27/20 A3004 RMK A01 T02730202  RH  065%=      5-min Rain = 0
KME1 061433Z 18009G15KT 27/20 A3004 RMK A01 T02740202  RH  065%=      5-min Rain = 0
KME1 061434Z 18015G20KT 28/20 A3004 RMK A01 T02750202  RH  064%=      5-min Rain = 0
KME1 061435Z 18017KT 28/20 A3004 RMK A01 T02760201  RH  064%=      5-min Rain = 0
KME1 061436Z 17018KT 28/20 A3003 RMK A01 T02760201  RH  064%=      5-min Rain = 0
KME1 061437Z 18015KT 28/20 A3003 RMK A01 T02760201  RH  064%=      5-min Rain = 0
KME1 061438Z 18014KT 28/20 A3003 RMK A01 T02760201  RH  064%=      5-min Rain = 0
KME1 061439Z 18011KT 28/20 A3003 RMK A01 T02760201  RH  064%=      5-min Rain = 0
KME1 061440Z 17014KT 28/20 A3003 RMK A01 T02780202  RH  063%=      5-min Rain = 0
KME1 061441Z 18014G20KT 28/20 A3003 RMK A01 T02780201  RH  063%=      5-min Rain = 0
KME1 061442Z 17016KT 28/20 A3003 RMK A01 T02780201  RH  063%=      5-min Rain = 0
KME1 061443Z 17016KT 28/20 A3003 RMK A01 T02780200  RH  063%=      5-min Rain = 0
KME1 061444Z 18014G19KT 28/20 A3003 RMK A01 T02770200  RH  063%=      5-min Rain = 0
KME1 061445Z 18015G20KT 28/20 A3003 RMK A01 T02790200  RH  062%=      5-min Rain = 0
KME1 061446Z 18016G22KT 28/20 A3003 RMK A01 T02800200  RH  062%=      5-min Rain = 0
KME1 061447Z 18013KT 28/20 A3003 RMK A01 T02790200  RH  062%=      5-min Rain = 0
KME1 061448Z 18020KT 28/20 A3003 RMK A01 T02810200  RH  061%=      5-min Rain = 0
KME1 061449Z 18015KT 28/20 A3003 RMK A01 T02800199  RH  061%=      5-min Rain = 0
KME1 061450Z 18016KT 28/20 A3003 RMK A01 T02800199  RH  062%=      5-min Rain = 0
KME1 061451Z 18018G23KT 28/20 A3003 RMK A01 T02800199  RH  061%=      5-min Rain = 0
KME1 061452Z 18019KT 28/20 A3003 RMK A01 T02800198  RH  061%=      5-min Rain = 0
KME1 061453Z 18015KT 28/20 A3003 RMK A01 T02800199  RH  061%=      5-min Rain = 0
KME1 061454Z 18018KT 28/20 A3003 RMK A01 T02810197  RH  060%=      5-min Rain = 0
KME1 061455Z 18016KT 28/20 A3003 RMK A01 T02820196  RH  060%=      5-min Rain = 0
KME1 061456Z 18016KT 28/20 A3003 RMK A01 T02820197  RH  060%=      5-min Rain = 0
KME1 061457Z 18015KT 28/20 A3003 RMK A01 T02820198  RH  060%=      5-min Rain = 0
KME1 061458Z 18013G18KT 28/20 A3003 RMK A01 T02830199  RH  060%=      5-min Rain = 0
KME1 061459Z 18017G22KT 29/20 A3003 RMK A01 T02850198  RH  059%=      5-min Rain = 0
KME1 061500Z 18016G21KT 28/20 A3003 RMK A01 T02840197  RH  059%=      5-min Rain = 0
KME1 061501Z 18013KT 28/20 A3003 RMK A01 T02820197  RH  060%=      5-min Rain = 0
KME1 061502Z 18015G20KT 28/20 A3003 RMK A01 T02830197  RH  060%=      5-min Rain = 0
KME1 061503Z 19014KT 28/20 A3003 RMK A01 T02840197  RH  059%=      5-min Rain = 0
KME1 061504Z 19014KT 29/20 A3003 RMK A01 T02850198  RH  059%=      5-min Rain = 0
KME1 061505Z 19018G23KT 29/20 A3003 RMK A01 T02860197  RH  059%=      5-min Rain = 0
KME1 061506Z 18017KT 29/20 A3003 RMK A01 T02860197  RH  059%=      5-min Rain = 0
KME1 061507Z 18013KT 29/20 A3003 RMK A01 T02850198  RH  059%=      5-min Rain = 0
KME1 061508Z 17011KT 29/20 A3003 RMK A01 T02860200  RH  060%=      5-min Rain = 0
KME1 061509Z 18012KT 29/20 A3003 RMK A01 T02910200  RH  058%=      5-min Rain = 0
KME1 061510Z 19016G23KT 29/20 A3003 RMK A01 T02920199  RH  057%=      5-min Rain = 0
KME1 061511Z 19017KT 29/20 A3003 RMK A01 T02910196  RH  057%=      5-min Rain = 0
KME1 061512Z 19017KT 29/20 A3003 RMK A01 T02900196  RH  057%=      5-min Rain = 0
KME1 061513Z 18015KT 29/20 A3003 RMK A01 T02890196  RH  057%=      5-min Rain = 0
KME1 061514Z 19017G22KT 29/20 A3003 RMK A01 T02890195  RH  057%=      5-min Rain = 0
KME1 061515Z 20016KT 29/20 A3003 RMK A01 T02890195  RH  057%=      5-min Rain = 0
KME1 061516Z 18018G23KT 29/20 A3003 RMK A01 T02910195  RH  056%=      5-min Rain = 0
KME1 061517Z 18015KT 29/20 A3003 RMK A01 T02920195  RH  056%=      5-min Rain = 0
KME1 061518Z 20010KT 29/20 A3003 RMK A01 T02910196  RH  056%=      5-min Rain = 0
KME1 061519Z 19013G20KT 29/20 A3003 RMK A01 T02940196  RH  056%=      5-min Rain = 0
KME1 061520Z 18016KT 29/20 A3003 RMK A01 T02940196  RH  056%=      5-min Rain = 0
KME1 061521Z 17017KT 29/20 A3003 RMK A01 T02920195  RH  056%=      5-min Rain = 0
KME1 061522Z 18016KT 29/20 A3003 RMK A01 T02910195  RH  056%=      5-min Rain = 0
KME1 061523Z 18017KT 29/20 A3003 RMK A01 T02910195  RH  056%=      5-min Rain = 0
KME1 061524Z 19015G20KT 29/20 A3003 RMK A01 T02910196  RH  056%=      5-min Rain = 0
KME1 061525Z 17014KT 29/20 A3003 RMK A01 T02920196  RH  056%=      5-min Rain = 0
KME1 061526Z 18012G17KT 29/20 A3003 RMK A01 T02930198  RH  057%=      5-min Rain = 0
KME1 061527Z 17012KT 30/20 A3003 RMK A01 T02950199  RH  056%=      5-min Rain = 0
KME1 061528Z 18011KT 30/20 A3003 RMK A01 T02980199  RH  056%=      5-min Rain = 0
KME1 061529Z 17007KT 30/20 A3003 RMK A01 T03020201  RH  055%=      5-min Rain = 0
KME1 061530Z 17014KT 31/20 A3003 RMK A01 T03050200  RH  054%=      5-min Rain = 0
KME1 061531Z 17018KT 31/20 A3002 RMK A01 T03050198  RH  053%=      5-min Rain = 0
KME1 061532Z 18014KT 30/20 A3002 RMK A01 T03020196  RH  053%=      5-min Rain = 0
KME1 061533Z 19015G20KT 30/20 A3003 RMK A01 T03010197  RH  054%=      5-min Rain = 0
KME1 061534Z 19013G18KT 30/20 A3003 RMK A01 T03000196  RH  054%=      5-min Rain = 0
KME1 061535Z 19014G22KT 30/20 A3003 RMK A01 T03000195  RH  053%=      5-min Rain = 0
KME1 061536Z 19014KT 30/20 A3003 RMK A01 T03000196  RH  053%=      5-min Rain = 0
KME1 061537Z 19012KT 30/20 A3003 RMK A01 T03020196  RH  053%=      5-min Rain = 0
KME1 061538Z 19013G19KT 31/20 A3003 RMK A01 T03050197  RH  053%=      5-min Rain = 0
KME1 061539Z 18012G20KT 30/20 A3003 RMK A01 T03040197  RH  053%=      5-min Rain = 0
KME1 061540Z 19016KT 30/20 A3003 RMK A01 T03040197  RH  053%=      5-min Rain = 0
KME1 061541Z 19013G18KT 30/20 A3002 RMK A01 T03020197  RH  053%=      5-min Rain = 0
KME1 061542Z 18012KT 30/20 A3002 RMK A01 T03010197  RH  054%=      5-min Rain = 0
KME1 061543Z 19018G23KT 30/20 A3002 RMK A01 T03020196  RH  053%=      5-min Rain = 0
KME1 061544Z 20017KT 30/20 A3002 RMK A01 T03020195  RH  053%=      5-min Rain = 0
KME1 061545Z 19015G20KT 30/19 A3002 RMK A01 T03000194  RH  053%=      5-min Rain = 0
KME1 061546Z 19016KT 30/19 A3003 RMK A01 T03000194  RH  053%=      5-min Rain = 0
KME1 061547Z 19015G20KT 30/19 A3003 RMK A01 T03000194  RH  053%=      5-min Rain = 0
KME1 061548Z 19015G20KT 30/19 A3003 RMK A01 T03010194  RH  053%=      5-min Rain = 0
KME1 061549Z 19016KT 30/19 A3003 RMK A01 T03010193  RH  052%=      5-min Rain = 0
KME1 061550Z 19015G21KT 30/20 A3003 RMK A01 T03000195  RH  053%=      5-min Rain = 0
KME1 061551Z 18015KT 30/19 A3003 RMK A01 T03010194  RH  052%=      5-min Rain = 0
KME1 061552Z 18016KT 30/19 A3003 RMK A01 T03000194  RH  053%=      5-min Rain = 0
KME1 061553Z 18015KT 30/19 A3003 RMK A01 T02990194  RH  053%=      5-min Rain = 0
KME1 061554Z 18014G19KT 30/19 A3003 RMK A01 T03000193  RH  053%=      5-min Rain = 0
KME1 061555Z 19014G19KT 30/19 A3003 RMK A01 T03020194  RH  052%=      5-min Rain = 0
KME1 061556Z 19013KT 30/20 A3003 RMK A01 T03030195  RH  053%=      5-min Rain = 0
KME1 061557Z 19012KT 30/20 A3003 RMK A01 T03040196  RH  052%=      5-min Rain = 0
KME1 061558Z 19013KT 31/20 A3003 RMK A01 T03050196  RH  052%=      5-min Rain = 0
KME1 061559Z 19015KT 30/20 A3003 RMK A01 T03040197  RH  053%=      5-min Rain = 0
KME1 061600Z 19017KT 30/20 A3003 RMK A01 T03040196  RH  053%=      5-min Rain = 0
KME1 061601Z 19016KT 30/20 A3003 RMK A01 T03020196  RH  053%=      5-min Rain = 0
KME1 061602Z 19013KT 30/20 A3003 RMK A01 T03020196  RH  053%=      5-min Rain = 0
KME1 061603Z 18014KT 30/20 A3003 RMK A01 T03020196  RH  053%=      5-min Rain = 0
KME1 061604Z 17015KT 30/20 A3003 RMK A01 T03040197  RH  053%=      5-min Rain = 0
KME1 061605Z 16018KT 31/19 A3003 RMK A01 T03060194  RH  051%=      5-min Rain = 0
KME1 061606Z 17017KT 31/19 A3003 RMK A01 T03060192  RH  051%=      5-min Rain = 0
KME1 061607Z 17018KT 31/19 A3003 RMK A01 T03060192  RH  051%=      5-min Rain = 0
KME1 061608Z 19014KT 31/19 A3003 RMK A01 T03050190  RH  050%=      5-min Rain = 0
KME1 061609Z 18010KT 30/19 A3003 RMK A01 T03040192  RH  051%=      5-min Rain = 0
KME1 061610Z 18014G19KT 31/19 A3003 RMK A01 T03050193  RH  051%=      5-min Rain = 0
KME1 061611Z 17017KT 31/19 A3003 RMK A01 T03060193  RH  051%=      5-min Rain = 0
KME1 061612Z 18017KT 31/19 A3003 RMK A01 T03070193  RH  050%=      5-min Rain = 0
KME1 061613Z 19014KT 31/19 A3003 RMK A01 T03060192  RH  051%=      5-min Rain = 0
KME1 061614Z 19016KT 31/19 A3003 RMK A01 T03060193  RH  051%=      5-min Rain = 0
KME1 061615Z 18015KT 31/20 A3003 RMK A01 T03080195  RH  051%=      5-min Rain = 0
KME1 061616Z 17013KT 31/20 A3003 RMK A01 T03080196  RH  051%=      5-min Rain = 0
KME1 061617Z 17012KT 31/20 A3003 RMK A01 T03090195  RH  051%=      5-min Rain = 0
KME1 061618Z 16010KT 31/20 A3003 RMK A01 T03110196  RH  050%=      5-min Rain = 0
KME1 061619Z 17013KT 32/20 A3003 RMK A01 T03150197  RH  050%=      5-min Rain = 0
KME1 061620Z 16011KT 32/20 A3003 RMK A01 T03160197  RH  049%=      5-min Rain = 0
KME1 061621Z 16010KT 32/20 A3003 RMK A01 T03150197  RH  050%=      5-min Rain = 0
KME1 061622Z 17013G18KT 32/20 A3003 RMK A01 T03160196  RH  049%=      5-min Rain = 0
KME1 061623Z 18013KT 32/19 A3003 RMK A01 T03170194  RH  048%=      5-min Rain = 0
KME1 061624Z 17015KT 32/19 A3003 RMK A01 T03170193  RH  048%=      5-min Rain = 0
KME1 061625Z 17016KT 32/19 A3004 RMK A01 T03150194  RH  049%=      5-min Rain = 0
KME1 061626Z 17018G23KT 31/19 A3003 RMK A01 T03140192  RH  048%=      5-min Rain = 0
KME1 061627Z 19016KT 31/19 A3003 RMK A01 T03120191  RH  049%=      5-min Rain = 0
KME1 061628Z 18014KT 31/19 A3003 RMK A01 T03100190  RH  049%=      5-min Rain = 0
KME1 061629Z 17014KT 31/19 A3004 RMK A01 T03110192  RH  049%=      5-min Rain = 0
KME1 061630Z 17013KT 31/19 A3003 RMK A01 T03140193  RH  049%=      5-min Rain = 0
KME1 061631Z 19013G18KT 32/19 A3003 RMK A01 T03170194  RH  048%=      5-min Rain = 0
KME1 061632Z 19011KT 32/19 A3004 RMK A01 T03190194  RH  048%=      5-min Rain = 0
KME1 061633Z 19013KT 32/19 A3004 RMK A01 T03200194  RH  047%=      5-min Rain = 0
KME1 061634Z 18009G14KT 32/20 A3003 RMK A01 T03200195  RH  048%=      5-min Rain = 0
KME1 061635Z 16009KT 32/20 A3003 RMK A01 T03200195  RH  048%=      5-min Rain = 0
KME1 061636Z 17010KT 32/20 A3003 RMK A01 T03180195  RH  048%=      5-min Rain = 0
KME1 061637Z 19012G18KT 32/19 A3003 RMK A01 T03180194  RH  048%=      5-min Rain = 0
KME1 061638Z 19014KT 32/19 A3003 RMK A01 T03190194  RH  047%=      5-min Rain = 0
KME1 061639Z 18018KT 32/19 A3003 RMK A01 T03190194  RH  048%=      5-min Rain = 0
KME1 061640Z 17015KT 32/19 A3003 RMK A01 T03170194  RH  048%=      5-min Rain = 0
KME1 061641Z 19010KT 32/20 A3003 RMK A01 T03170195  RH  049%=      5-min Rain = 0
KME1 061642Z 19010KT 32/20 A3003 RMK A01 T03180195  RH  048%=      5-min Rain = 0
KME1 061643Z 18012KT 32/20 A3003 RMK A01 T03200197  RH  048%=      5-min Rain = 0
KME1 061644Z 18014KT 32/20 A3003 RMK A01 T03230197  RH  047%=      5-min Rain = 0
KME1 061645Z 18017KT 32/20 A3003 RMK A01 T03220195  RH  047%=      5-min Rain = 0
KME1 061646Z 18014KT 32/20 A3004 RMK A01 T03210195  RH  047%=      5-min Rain = 0
KME1 061647Z 19014KT 32/20 A3004 RMK A01 T03240195  RH  047%=      5-min Rain = 0
KME1 061648Z 17015KT 32/19 A3004 RMK A01 T03220194  RH  047%=      5-min Rain = 0
KME1 061649Z 16014KT 32/19 A3004 RMK A01 T03210192  RH  047%=      5-min Rain = 0
KME1 061650Z 16014KT 32/19 A3004 RMK A01 T03210192  RH  047%=      5-min Rain = 0
KME1 061651Z 16015G20KT 32/19 A3003 RMK A01 T03220191  RH  046%=      5-min Rain = 0
KME1 061652Z 18016KT 32/19 A3003 RMK A01 T03220192  RH  046%=      5-min Rain = 0
KME1 061653Z 18011KT 32/19 A3003 RMK A01 T03210192  RH  046%=      5-min Rain = 0
KME1 061654Z 17010KT 32/19 A3003 RMK A01 T03200193  RH  047%=      5-min Rain = 0
KME1 061655Z 20012KT 33/19 A3003 RMK A01 T03250194  RH  046%=      5-min Rain = 0
KME1 061656Z 19014KT 33/19 A3003 RMK A01 T03260192  RH  045%=      5-min Rain = 0
KME1 061657Z 18012KT 32/19 A3003 RMK A01 T03240190  RH  045%=      5-min Rain = 0
KME1 061658Z 18012KT 32/19 A3003 RMK A01 T03240191  RH  045%=      5-min Rain = 0
KME1 061659Z 19011KT 32/19 A3003 RMK A01 T03240193  RH  046%=      5-min Rain = 0
KME1 061700Z 17012KT 33/19 A3003 RMK A01 T03250193  RH  046%=      5-min Rain = 0
KME1 061701Z 17012KT 33/19 A3003 RMK A01 T03260191  RH  045%=      5-min Rain = 0
KME1 061702Z 17012KT 33/19 A3003 RMK A01 T03260190  RH  044%=      5-min Rain = 0
KME1 061703Z 18011KT 33/19 A3003 RMK A01 T03270190  RH  044%=      5-min Rain = 0
KME1 061704Z 17012G17KT 33/19 A3003 RMK A01 T03260190  RH  045%=      5-min Rain = 0
KME1 061705Z 19010KT 33/19 A3003 RMK A01 T03260190  RH  045%=      5-min Rain = 0
KME1 061706Z 18007KT 33/19 A3003 RMK A01 T03250190  RH  045%=      5-min Rain = 0
KME1 061707Z 17010KT 33/19 A3003 RMK A01 T03260192  RH  045%=      5-min Rain = 0
KME1 061708Z 18013KT 33/19 A3003 RMK A01 T03290192  RH  045%=      5-min Rain = 0
KME1 061709Z 20013KT 33/19 A3003 RMK A01 T03300191  RH  044%=      5-min Rain = 0
KME1 061710Z 19013KT 33/19 A3003 RMK A01 T03290189  RH  043%=      5-min Rain = 0
KME1 061711Z 17013G18KT 33/19 A3003 RMK A01 T03280188  RH  044%=      5-min Rain = 0
KME1 061712Z 18012KT 33/19 A3003 RMK A01 T03280190  RH  044%=      5-min Rain = 0
KME1 061713Z 18012G17KT 33/19 A3003 RMK A01 T03300191  RH  044%=      5-min Rain = 0
KME1 061714Z 18009G14KT 33/19 A3003 RMK A01 T03310192  RH  044%=      5-min Rain = 0
KME1 061715Z 19011KT 33/19 A3003 RMK A01 T03310190  RH  043%=      5-min Rain = 0
KME1 061716Z 19010G16KT 33/19 A3003 RMK A01 T03270188  RH  044%=      5-min Rain = 0
KME1 061717Z 19013G18KT 33/19 A3003 RMK A01 T03290190  RH  044%=      5-min Rain = 0
KME1 061718Z 20011KT 33/19 A3003 RMK A01 T03310190  RH  043%=      5-min Rain = 0
KME1 061719Z 19012G17KT 33/19 A3003 RMK A01 T03330191  RH  043%=      5-min Rain = 0
KME1 061720Z 18014KT 34/19 A3003 RMK A01 T03350189  RH  042%=      5-min Rain = 0
KME1 061721Z 17014KT 33/19 A3003 RMK A01 T03340188  RH  042%=      5-min Rain = 0
KME1 061722Z 17013KT 33/19 A3003 RMK A01 T03310187  RH  043%=      5-min Rain = 0
KME1 061723Z 18011KT 33/19 A3003 RMK A01 T03300188  RH  043%=      5-min Rain = 0
KME1 061724Z 18008KT 33/19 A3003 RMK A01 T03280189  RH  044%=      5-min Rain = 0
KME1 061725Z 16014G19KT 33/19 A3003 RMK A01 T03320189  RH  043%=      5-min Rain = 0
KME1 061726Z 16014KT 33/19 A3003 RMK A01 T03330188  RH  042%=      5-min Rain = 0
KME1 061727Z 18012KT 33/19 A3003 RMK A01 T03320189  RH  043%=      5-min Rain = 0
KME1 061728Z 18009KT 33/19 A3003 RMK A01 T03320189  RH  043%=      5-min Rain = 0
KME1 061729Z 17009KT 33/19 A3003 RMK A01 T03330190  RH  043%=      5-min Rain = 0
KME1 061730Z 15012KT 33/19 A3003 RMK A01 T03340188  RH  042%=      5-min Rain = 0
KME1 061731Z 18010G15KT 34/19 A3003 RMK A01 T03350187  RH  042%=      5-min Rain = 0
KME1 061732Z 16010KT 34/19 A3003 RMK A01 T03380189  RH  042%=      5-min Rain = 0
KME1 061733Z 16011KT 34/19 A3003 RMK A01 T03410188  RH  041%=      5-min Rain = 0
KME1 061734Z 16011KT 34/19 A3003 RMK A01 T03380189  RH  041%=      5-min Rain = 0
KME1 061735Z 18012G17KT 34/19 A3003 RMK A01 T03370190  RH  042%=      5-min Rain = 0
KME1 061736Z 17012KT 34/19 A3003 RMK A01 T03370190  RH  042%=      5-min Rain = 0
KME1 061737Z 17010KT 34/19 A3003 RMK A01 T03350188  RH  042%=      5-min Rain = 0
KME1 061738Z 15009KT 34/19 A3003 RMK A01 T03350188  RH  042%=      5-min Rain = 0
KME1 061739Z 16011KT 34/19 A3003 RMK A01 T03390188  RH  041%=      5-min Rain = 0
KME1 061740Z 21015KT 34/19 A3003 RMK A01 T03410186  RH  040%=      5-min Rain = 0
KME1 061741Z 20012KT 34/18 A3003 RMK A01 T03390183  RH  040%=      5-min Rain = 0
KME1 061742Z 20011KT 34/18 A3003 RMK A01 T03360182  RH  040%=      5-min Rain = 0
KME1 061743Z 19012G20KT 34/18 A3003 RMK A01 T03350181  RH  040%=      5-min Rain = 0
KME1 061744Z 19014KT 34/18 A3003 RMK A01 T03360177  RH  039%=      5-min Rain = 0
KME1 061745Z 19012KT 34/18 A3003 RMK A01 T03380177  RH  039%=      5-min Rain = 0
KME1 061746Z 18015KT 34/18 A3003 RMK A01 T03370182  RH  040%=      5-min Rain = 0
KME1 061747Z 19013KT 34/18 A3003 RMK A01 T03370183  RH  040%=      5-min Rain = 0
KME1 061748Z 19011KT 34/19 A3003 RMK A01 T03360185  RH  041%=      5-min Rain = 0
KME1 061749Z 19011KT 34/19 A3003 RMK A01 T03360185  RH  041%=      5-min Rain = 0
KME1 061750Z 20010KT 34/18 A3003 RMK A01 T03370184  RH  040%=      5-min Rain = 0
KME1 061751Z 17012KT 34/18 A3003 RMK A01 T03380179  RH  039%=      5-min Rain = 0
KME1 061752Z 17013KT 34/17 A3003 RMK A01 T03380173  RH  037%=      5-min Rain = 0
KME1 061753Z 19009KT 34/18 A3003 RMK A01 T03370177  RH  039%=      5-min Rain = 0
KME1 061754Z 18011G16KT 34/18 A3003 RMK A01 T03390180  RH  039%=      5-min Rain = 0
KME1 061755Z 18012KT 34/19 A3003 RMK A01 T03390185  RH  040%=      5-min Rain = 0
KME1 061756Z 18011KT 34/19 A3003 RMK A01 T03410185  RH  040%=      5-min Rain = 0
KME1 061757Z 19009KT 34/19 A3003 RMK A01 T03410186  RH  040%=      5-min Rain = 0
KME1 061758Z 18008G13KT 34/18 A3003 RMK A01 T03410184  RH  039%=      5-min Rain = 0
KME1 061759Z 18010KT 34/18 A3003 RMK A01 T03410182  RH  039%=      5-min Rain = 0
KME1 061800Z 18013KT 34/18 A3003 RMK A01 T03410179  RH  038%=      5-min Rain = 0
KME1 061801Z 19013KT 34/18 A3003 RMK A01 T03410179  RH  038%=      5-min Rain = 0
KME1 061802Z 18013KT 34/18 A3003 RMK A01 T03400181  RH  039%=      5-min Rain = 0
KME1 061803Z 19012KT 34/18 A3003 RMK A01 T03410182  RH  039%=      5-min Rain = 0
KME1 061804Z 19011KT 34/18 A3003 RMK A01 T03440180  RH  038%=      5-min Rain = 0
KME1 061805Z 18013KT 35/18 A3002 RMK A01 T03450180  RH  038%=      5-min Rain = 0
KME1 061806Z 18014KT 35/18 A3002 RMK A01 T03450181  RH  038%=      5-min Rain = 0
KME1 061807Z 19014KT 34/18 A3002 RMK A01 T03420182  RH  039%=      5-min Rain = 0
KME1 061808Z 19009KT 34/18 A3002 RMK A01 T03400181  RH  039%=      5-min Rain = 0
KME1 061809Z 18010KT 34/18 A3002 RMK A01 T03420181  RH  038%=      5-min Rain = 0
KME1 061810Z 18012KT 35/18 A3002 RMK A01 T03450178  RH  037%=      5-min Rain = 0
KME1 061811Z 18013KT 35/18 A3002 RMK A01 T03460179  RH  037%=      5-min Rain = 0
KME1 061812Z 19010KT 35/18 A3002 RMK A01 T03450178  RH  037%=      5-min Rain = 0
KME1 061813Z 18011KT 35/18 A3002 RMK A01 T03460180  RH  038%=      5-min Rain = 0
KME1 061814Z 18010KT 35/18 A3002 RMK A01 T03480181  RH  037%=      5-min Rain = 0
KME1 061815Z 18013KT 35/18 A3002 RMK A01 T03480181  RH  037%=      5-min Rain = 0
KME1 061816Z 17012KT 35/18 A3002 RMK A01 T03490181  RH  037%=      5-min Rain = 0
KME1 061817Z 18010G17KT 35/18 A3002 RMK A01 T03520180  RH  036%=      5-min Rain = 0
KME1 061818Z 19016KT 35/18 A3002 RMK A01 T03540177  RH  035%=      5-min Rain = 0
KME1 061819Z 19013KT 35/18 A3002 RMK A01 T03490175  RH  036%=      5-min Rain = 0
KME1 061820Z 18011KT 35/18 A3002 RMK A01 T03460178  RH  037%=      5-min Rain = 0
KME1 061821Z 18011KT 35/18 A3002 RMK A01 T03460179  RH  037%=      5-min Rain = 0
KME1 061822Z 18009KT 35/18 A3002 RMK A01 T03480180  RH  037%=      5-min Rain = 0
KME1 061823Z 16009KT 35/18 A3002 RMK A01 T03510181  RH  037%=      5-min Rain = 0
KME1 061824Z 17009KT 35/18 A3001 RMK A01 T03530183  RH  037%=      5-min Rain = 0
KME1 061825Z 18013G18KT 36/18 A3001 RMK A01 T03570182  RH  036%=      5-min Rain = 0
KME1 061826Z 18014KT 36/18 A3001 RMK A01 T03550179  RH  035%=      5-min Rain = 0
KME1 061827Z 16014KT 35/18 A3001 RMK A01 T03520180  RH  036%=      5-min Rain = 0
KME1 061828Z 17012KT 35/18 A3001 RMK A01 T03510179  RH  036%=      5-min Rain = 0
KME1 061829Z 17011KT 35/18 A3001 RMK A01 T03490178  RH  036%=      5-min Rain = 0
KME1 061830Z 16015KT 35/18 A3001 RMK A01 T03480176  RH  036%=      5-min Rain = 0
KME1 061831Z 17015KT 35/17 A3001 RMK A01 T03490173  RH  035%=      5-min Rain = 0
KME1 061832Z 18013KT 35/18 A3001 RMK A01 T03500175  RH  036%=      5-min Rain = 0
KME1 061833Z 18012KT 35/18 A3001 RMK A01 T03500178  RH  036%=      5-min Rain = 0
KME1 061834Z 18010KT 35/18 A3001 RMK A01 T03490178  RH  036%=      5-min Rain = 0
KME1 061835Z 18009KT 35/18 A3001 RMK A01 T03460179  RH  037%=      5-min Rain = 0
KME1 061836Z 18015KT 35/18 A3001 RMK A01 T03480177  RH  036%=      5-min Rain = 0
KME1 061837Z 16012KT 35/18 A3001 RMK A01 T03490175  RH  036%=      5-min Rain = 0
KME1 061838Z 16010KT 35/17 A3001 RMK A01 T03500174  RH  035%=      5-min Rain = 0
KME1 061839Z 17011KT 36/18 A3001 RMK A01 T03550176  RH  035%=      5-min Rain = 0
KME1 061840Z 16009KT 36/18 A3001 RMK A01 T03560175  RH  034%=      5-min Rain = 0
KME1 061841Z 16012G17KT 36/18 A3001 RMK A01 T03560178  RH  035%=      5-min Rain = 0
KME1 061842Z 17015KT 36/18 A3001 RMK A01 T03580179  RH  035%=      5-min Rain = 0
KME1 061843Z 18013KT 36/18 A3001 RMK A01 T03570178  RH  035%=      5-min Rain = 0
KME1 061844Z 19008KT 36/18 A3001 RMK A01 T03560178  RH  035%=      5-min Rain = 0
KME1 061845Z 20013KT 36/17 A3001 RMK A01 T03570172  RH  033%=      5-min Rain = 0
KME1 061846Z 20012KT 35/17 A3001 RMK A01 T03540165  RH  033%=      5-min Rain = 0
KME1 061847Z 20007KT 36/17 A3001 RMK A01 T03560168  RH  033%=      5-min Rain = 0
KME1 061848Z 18011KT 36/17 A3001 RMK A01 T03560170  RH  033%=      5-min Rain = 0
KME1 061849Z 18015KT 36/17 A3001 RMK A01 T03560170  RH  033%=      5-min Rain = 0
KME1 061850Z 18014KT 36/17 A3001 RMK A01 T03550170  RH  033%=      5-min Rain = 0
KME1 061851Z 19011KT 35/17 A30 RMK A01 T03540172  RH  034%=      5-min Rain = 0
KME1 061852Z 17013KT 35/17 A30 RMK A01 T03530173  RH  035%=      5-min Rain = 0
KME1 061853Z 18011KT 35/17 A3001 RMK A01 T03530170  RH  034%=      5-min Rain = 0
KME1 061854Z 17010KT 35/17 A30 RMK A01 T03530172  RH  034%=      5-min Rain = 0
KME1 061855Z 19010KT 35/18 A30 RMK A01 T03540176  RH  035%=      5-min Rain = 0
KME1 061856Z 19009KT 35/18 A30 RMK A01 T03540175  RH  035%=      5-min Rain = 0
KME1 061857Z 19007G12KT 36/18 A30 RMK A01 T03550177  RH  035%=      5-min Rain = 0
KME1 061858Z 21013KT 36/18 A30 RMK A01 T03590178  RH  034%=      5-min Rain = 0
KME1 061859Z 19010KT 36/18 A30 RMK A01 T03580179  RH  035%=      5-min Rain = 0
KME1 061900Z 19013KT 36/18 A30 RMK A01 T03580177  RH  034%=      5-min Rain = 0
KME1 061901Z 19013KT 36/18 A30 RMK A01 T03570176  RH  034%=      5-min Rain = 0
KME1 061902Z 20010KT 35/18 A30 RMK A01 T03540175  RH  035%=      5-min Rain = 0
KME1 061903Z 21009KT 35/17 A30 RMK A01 T03520174  RH  035%=      5-min Rain = 0
KME1 061904Z 18012G17KT 36/18 A30 RMK A01 T03560175  RH  034%=      5-min Rain = 0
KME1 061905Z 19012G17KT 36/18 A30 RMK A01 T03570179  RH  035%=      5-min Rain = 0
KME1 061906Z 18014KT 36/18 A30 RMK A01 T03590177  RH  034%=      5-min Rain = 0
KME1 061907Z 19011G17KT 36/18 A30 RMK A01 T03580177  RH  034%=      5-min Rain = 0
KME1 061908Z 19007KT 36/18 A30 RMK A01 T03580177  RH  034%=      5-min Rain = 0
KME1 061909Z 18010KT 36/18 A30 RMK A01 T03580178  RH  035%=      5-min Rain = 0
KME1 061910Z 18011KT 36/18 A30 RMK A01 T03570179  RH  035%=      5-min Rain = 0
KME1 061911Z 18011KT 36/18 A30 RMK A01 T03560180  RH  035%=      5-min Rain = 0
KME1 061912Z 18011KT 36/18 A30 RMK A01 T03550180  RH  036%=      5-min Rain = 0
KME1 061913Z 17013KT 35/18 A30 RMK A01 T03540178  RH  035%=      5-min Rain = 0
KME1 061914Z 18009KT 36/18 A30 RMK A01 T03550178  RH  035%=      5-min Rain = 0
KME1 061915Z 18008KT 36/18 A30 RMK A01 T03590178  RH  034%=      5-min Rain = 0
KME1 061916Z 19007KT 36/18 A30 RMK A01 T03600178  RH  034%=      5-min Rain = 0
KME1 061917Z 14014KT 36/17 A2999 RMK A01 T03620174  RH  033%=      5-min Rain = 0
KME1 061918Z 15013KT 36/17 A30 RMK A01 T03620173  RH  033%=      5-min Rain = 0
KME1 061919Z 16008KT 36/17 A30 RMK A01 T03590173  RH  033%=      5-min Rain = 0
KME1 061920Z 18009KT 36/17 A30 RMK A01 T03610173  RH  033%=      5-min Rain = 0
KME1 061921Z 19009KT 36/17 A2999 RMK A01 T03620174  RH  033%=      5-min Rain = 0
KME1 061922Z 17014G19KT 36/18 A2999 RMK A01 T03630178  RH  034%=      5-min Rain = 0
KME1 061923Z 18015G21KT 36/18 A2999 RMK A01 T03610175  RH  034%=      5-min Rain = 0
KME1 061924Z 20016KT 36/17 A2999 RMK A01 T03590173  RH  033%=      5-min Rain = 0
KME1 061925Z 20018KT 36/17 A2999 RMK A01 T03580172  RH  033%=      5-min Rain = 0
KME1 061926Z 19016KT 36/17 A2999 RMK A01 T03590171  RH  033%=      5-min Rain = 0
KME1 061927Z 19015KT 36/17 A2999 RMK A01 T03580168  RH  033%=      5-min Rain = 0
KME1 061928Z 17013KT 36/17 A2999 RMK A01 T03580169  RH  033%=      5-min Rain = 0
KME1 061929Z 18013KT 36/17 A2999 RMK A01 T03590170  RH  033%=      5-min Rain = 0
KME1 061930Z 19009KT 36/17 A2999 RMK A01 T03600171  RH  033%=      5-min Rain = 0
KME1 061931Z 19008KT 36/17 A2999 RMK A01 T03590172  RH  033%=      5-min Rain = 0
KME1 061932Z 19009KT 36/17 A2999 RMK A01 T03620172  RH  033%=      5-min Rain = 0
KME1 061933Z 19013KT 36/17 A2999 RMK A01 T03610174  RH  033%=      5-min Rain = 0
KME1 061934Z 17011KT 36/18 A2999 RMK A01 T03610175  RH  033%=      5-min Rain = 0
KME1 061935Z 16014KT 36/17 A2999 RMK A01 T03590174  RH  033%=      5-min Rain = 0
KME1 061936Z 19013KT 36/17 A2999 RMK A01 T03600174  RH  033%=      5-min Rain = 0
KME1 061937Z 20013KT 36/17 A2999 RMK A01 T03630174  RH  033%=      5-min Rain = 0
KME1 061938Z 20011KT 36/17 A2999 RMK A01 T03640172  RH  032%=      5-min Rain = 0
KME1 061939Z 19010KT 36/17 A2999 RMK A01 T03610171  RH  033%=      5-min Rain = 0
KME1 061940Z 17012KT 36/17 A2999 RMK A01 T03580170  RH  033%=      5-min Rain = 0
KME1 061941Z 17013KT 36/16 A2999 RMK A01 T03600164  RH  031%=      5-min Rain = 0
KME1 061942Z 17011G17KT 36/17 A2999 RMK A01 T03620166  RH  032%=      5-min Rain = 0
KME1 061943Z 17013KT 36/17 A2999 RMK A01 T03620172  RH  033%=      5-min Rain = 0
KME1 061944Z 17011KT 36/17 A2999 RMK A01 T03610173  RH  033%=      5-min Rain = 0
KME1 061945Z 18010G15KT 36/17 A2999 RMK A01 T03610173  RH  033%=      5-min Rain = 0
KME1 061946Z 19012KT 36/17 A2999 RMK A01 T03620173  RH  033%=      5-min Rain = 0
KME1 061947Z 19011KT 36/17 A2999 RMK A01 T03640172  RH  032%=      5-min Rain = 0
KME1 061948Z 19015KT 36/17 A2999 RMK A01 T03630170  RH  032%=      5-min Rain = 0
KME1 061949Z 18013KT 36/17 A2999 RMK A01 T03630166  RH  031%=      5-min Rain = 0
KME1 061950Z 17014KT 36/17 A2999 RMK A01 T03640167  RH  031%=      5-min Rain = 0
KME1 061951Z 19011G16KT 37/17 A2999 RMK A01 T03650167  RH  031%=      5-min Rain = 0
KME1 061952Z 18012KT 37/17 A2999 RMK A01 T03670166  RH  031%=      5-min Rain = 0
KME1 061953Z 17016KT 37/17 A2999 RMK A01 T03680165  RH  030%=      5-min Rain = 0
KME1 061954Z 16016G21KT 37/16 A2999 RMK A01 T03700163  RH  029%=      5-min Rain = 0
KME1 061955Z 17017KT 37/16 A2998 RMK A01 T03700162  RH  029%=      5-min Rain = 0
KME1 061956Z 16013KT 37/16 A2998 RMK A01 T03670163  RH  030%=      5-min Rain = 0
KME1 061957Z 17012KT 37/16 A2998 RMK A01 T03680164  RH  030%=      5-min Rain = 0
KME1 061958Z 17009G14KT 37/17 A2998 RMK A01 T03710168  RH  030%=      5-min Rain = 0
KME1 061959Z 18013KT 37/17 A2998 RMK A01 T03730167  RH  030%=      5-min Rain = 0
KME1 062000Z 16013KT 37/17 A2998 RMK A01 T03690168  RH  031%=      5-min Rain = 0
KME1 062001Z 16009KT 37/17 A2998 RMK A01 T03680168  RH  031%=      5-min Rain = 0
KME1 062002Z 16009G14KT 37/17 A2998 RMK A01 T03710169  RH  030%=      5-min Rain = 0
KME1 062003Z 16009KT 37/17 A2998 RMK A01 T03730167  RH  030%=      5-min Rain = 0
KME1 062004Z 17008G15KT 37/17 A2998 RMK A01 T03690165  RH  030%=      5-min Rain = 0
KME1 062005Z 18015KT 37/17 A2998 RMK A01 T03660167  RH  031%=      5-min Rain = 0
KME1 062006Z 19014KT 37/17 A2998 RMK A01 T03680166  RH  030%=      5-min Rain = 0
KME1 062007Z 19015KT 37/17 A2998 RMK A01 T03700165  RH  030%=      5-min Rain = 0
KME1 062008Z 18014KT 37/17 A2998 RMK A01 T03700166  RH  030%=      5-min Rain = 0
KME1 062009Z 17011KT 37/17 A2998 RMK A01 T03680167  RH  031%=      5-min Rain = 0
KME1 062010Z 17010KT 37/17 A2998 RMK A01 T03670168  RH  031%=      5-min Rain = 0
KME1 062011Z 16011KT 37/17 A2998 RMK A01 T03690169  RH  031%=      5-min Rain = 0
KME1 062012Z 14012G18KT 37/17 A2998 RMK A01 T03700169  RH  031%=      5-min Rain = 0
KME1 062013Z 16016G21KT 37/16 A2998 RMK A01 T03710163  RH  029%=      5-min Rain = 0
KME1 062014Z 17019KT 37/16 A2998 RMK A01 T03710157  RH  028%=      5-min Rain = 0
KME1 062015Z 17018KT 37/16 A2998 RMK A01 T03700155  RH  028%=      5-min Rain = 0
KME1 062016Z 16015G21KT 37/16 A2998 RMK A01 T03700160  RH  029%=      5-min Rain = 0
KME1 062017Z 16016KT 37/16 A2998 RMK A01 T03690162  RH  029%=      5-min Rain = 0
KME1 062018Z 17013KT 37/16 A2998 RMK A01 T03670164  RH  030%=      5-min Rain = 0
KME1 062019Z 15010KT 37/17 A2998 RMK A01 T03660165  RH  030%=      5-min Rain = 0
KME1 062020Z 17013KT 37/17 A2998 RMK A01 T03680165  RH  030%=      5-min Rain = 0
KME1 062021Z 15011G19KT 37/16 A2998 RMK A01 T03690164  RH  030%=      5-min Rain = 0
KME1 062022Z 16012KT 37/17 A2997 RMK A01 T03680165  RH  030%=      5-min Rain = 0
KME1 062023Z 17014KT 37/16 A2998 RMK A01 T03690163  RH  030%=      5-min Rain = 0
KME1 062024Z 18011KT 37/16 A2997 RMK A01 T03690161  RH  029%=      5-min Rain = 0
KME1 062025Z 20011KT 37/16 A2997 RMK A01 T03690161  RH  029%=      5-min Rain = 0
KME1 062026Z 19012KT 37/16 A2997 RMK A01 T03700162  RH  029%=      5-min Rain = 0
KME1 062027Z 16013KT 38/16 A2997 RMK A01 T03750164  RH  029%=      5-min Rain = 0
KME1 062028Z 16011KT 38/16 A2998 RMK A01 T03790156  RH  027%=      5-min Rain = 0
KME1 062029Z 17013KT 38/16 A2998 RMK A01 T03790159  RH  028%=      5-min Rain = 0
KME1 062030Z 16009KT 38/17 A2997 RMK A01 T03760165  RH  029%=      5-min Rain = 0
KME1 062031Z 19007KT 38/17 A2997 RMK A01 T03750166  RH  029%=      5-min Rain = 0
KME1 062032Z 18007KT 38/17 A2997 RMK A01 T03760166  RH  029%=      5-min Rain = 0
KME1 062033Z 15012G18KT 38/17 A2997 RMK A01 T03780165  RH  029%=      5-min Rain = 0
KME1 062034Z 17015KT 38/16 A2997 RMK A01 T03770159  RH  028%=      5-min Rain = 0
KME1 062035Z 17016G22KT 38/16 A2997 RMK A01 T03750159  RH  028%=      5-min Rain = 0
KME1 062036Z 17011KT 37/16 A2997 RMK A01 T03730159  RH  028%=      5-min Rain = 0
KME1 062037Z 17011KT 37/16 A2997 RMK A01 T03730161  RH  029%=      5-min Rain = 0
KME1 062038Z 17010KT 38/16 A2997 RMK A01 T03760161  RH  028%=      5-min Rain = 0
KME1 062039Z 18010KT 38/16 A2997 RMK A01 T03750160  RH  028%=      5-min Rain = 0
KME1 062040Z 16009KT 37/16 A2997 RMK A01 T03730158  RH  028%=      5-min Rain = 0
KME1 062041Z 14010G20KT 37/16 A2997 RMK A01 T03710159  RH  029%=      5-min Rain = 0
KME1 062042Z 14016KT 37/15 A2997 RMK A01 T03730154  RH  027%=      5-min Rain = 0
KME1 062043Z 14014G20KT 37/15 A2997 RMK A01 T03740151  RH  027%=      5-min Rain = 0
KME1 062044Z 15012KT 38/15 A2997 RMK A01 T03780153  RH  026%=      5-min Rain = 0
KME1 062045Z 15011G16KT 38/15 A2997 RMK A01 T03790154  RH  026%=      5-min Rain = 0
KME1 062046Z 16010G17KT 37/16 A2997 RMK A01 T03740155  RH  027%=      5-min Rain = 0
KME1 062047Z 15006KT 37/16 A2997 RMK A01 T03710155  RH  028%=      5-min Rain = 0
KME1 062048Z 16011KT 37/16 A2997 RMK A01 T03740157  RH  028%=      5-min Rain = 0
KME1 062049Z 17011G18KT 38/16 A2997 RMK A01 T03780159  RH  027%=      5-min Rain = 0
KME1 062050Z 18012KT 38/16 A2997 RMK A01 T03820162  RH  027%=      5-min Rain = 0
KME1 062051Z 18012G17KT 38/16 A2997 RMK A01 T03830162  RH  027%=      5-min Rain = 0
KME1 062052Z 17013G18KT 38/16 A2997 RMK A01 T03830159  RH  027%=      5-min Rain = 0
KME1 062053Z 16009KT 38/16 A2997 RMK A01 T03820157  RH  027%=      5-min Rain = 0
KME1 062054Z 18014KT 38/16 A2997 RMK A01 T03790157  RH  027%=      5-min Rain = 0
KME1 062055Z 18014KT 38/16 A2997 RMK A01 T03790158  RH  027%=      5-min Rain = 0
KME1 062056Z 18012KT 38/16 A2996 RMK A01 T03750158  RH  028%=      5-min Rain = 0
KME1 062057Z 16012G17KT 37/16 A2996 RMK A01 T03730158  RH  028%=      5-min Rain = 0
KME1 062058Z 17013KT 37/16 A2996 RMK A01 T03740159  RH  028%=      5-min Rain = 0
KME1 062059Z 18013KT 38/16 A2996 RMK A01 T03780158  RH  027%=      5-min Rain = 0
KME1 062100Z 19015KT 38/16 A2996 RMK A01 T03770158  RH  027%=      5-min Rain = 0
KME1 062101Z 18016G22KT 38/16 A2996 RMK A01 T03760157  RH  027%=      5-min Rain = 0
KME1 062102Z 17017KT 37/16 A2996 RMK A01 T03730158  RH  028%=      5-min Rain = 0
KME1 062103Z 17012G17KT 37/16 A2997 RMK A01 T03710159  RH  029%=      5-min Rain = 0
KME1 062104Z 17014KT 37/16 A2997 RMK A01 T03740162  RH  029%=      5-min Rain = 0
KME1 062105Z 16012KT 38/16 A2997 RMK A01 T03750162  RH  029%=      5-min Rain = 0
KME1 062106Z 15012KT 37/16 A2996 RMK A01 T03740162  RH  029%=      5-min Rain = 0
KME1 062107Z 15011KT 37/16 A2996 RMK A01 T03720161  RH  029%=      5-min Rain = 0
KME1 062108Z 18010KT 37/16 A2996 RMK A01 T03710162  RH  029%=      5-min Rain = 0
KME1 062109Z 18009KT 37/16 A2996 RMK A01 T03720161  RH  029%=      5-min Rain = 0
KME1 062110Z 18011KT 38/16 A2996 RMK A01 T03750160  RH  028%=      5-min Rain = 0
KME1 062111Z 18013KT 38/16 A2996 RMK A01 T03760159  RH  028%=      5-min Rain = 0
KME1 062112Z 19014KT 38/16 A2996 RMK A01 T03750158  RH  028%=      5-min Rain = 0
KME1 062113Z 18012KT 37/16 A2996 RMK A01 T03720157  RH  028%=      5-min Rain = 0
KME1 062114Z 19011KT 37/16 A2996 RMK A01 T03730157  RH  028%=      5-min Rain = 0
KME1 062115Z 18015G20KT 37/16 A2996 RMK A01 T03740158  RH  028%=      5-min Rain = 0
KME1 062116Z 19012G17KT 37/16 A2996 RMK A01 T03740160  RH  028%=      5-min Rain = 0
KME1 062117Z 17013KT 37/16 A2996 RMK A01 T03740162  RH  029%=      5-min Rain = 0
KME1 062118Z 15012KT 37/16 A2996 RMK A01 T03740159  RH  028%=      5-min Rain = 0
KME1 062119Z 15008KT 37/16 A2996 RMK A01 T03740162  RH  029%=      5-min Rain = 0
KME1 062120Z 17010KT 38/17 A2996 RMK A01 T03750165  RH  029%=      5-min Rain = 0
KME1 062121Z 18010KT 38/17 A2996 RMK A01 T03790165  RH  028%=      5-min Rain = 0
KME1 062122Z 18010KT 38/16 A2996 RMK A01 T03790163  RH  028%=      5-min Rain = 0
KME1 062123Z 18011KT 38/16 A2996 RMK A01 T03790160  RH  028%=      5-min Rain = 0
KME1 062124Z 16015KT 38/15 A2996 RMK A01 T03800153  RH  026%=      5-min Rain = 0
KME1 062125Z 17015KT 38/15 A2996 RMK A01 T03800146  RH  025%=      5-min Rain = 0
KME1 062126Z 18013KT 38/15 A2996 RMK A01 T03780148  RH  026%=      5-min Rain = 0
KME1 062127Z 17012KT 38/15 A2996 RMK A01 T03760151  RH  027%=      5-min Rain = 0
KME1 062128Z 18013KT 37/15 A2996 RMK A01 T03740151  RH  027%=      5-min Rain = 0
KME1 062129Z 18009KT 37/15 A2996 RMK A01 T03740151  RH  027%=      5-min Rain = 0
KME1 062130Z 18013KT 38/15 A2996 RMK A01 T03790151  RH  026%=      5-min Rain = 0
KME1 062131Z 18009KT 38/15 A2996 RMK A01 T03770152  RH  027%=      5-min Rain = 0
KME1 062132Z 17012KT 38/15 A2996 RMK A01 T03750154  RH  027%=      5-min Rain = 0
KME1 062133Z 17010G15KT 38/15 A2996 RMK A01 T03760149  RH  026%=      5-min Rain = 0
KME1 062134Z 19010KT 38/15 A2996 RMK A01 T03750153  RH  027%=      5-min Rain = 0
KME1 062135Z 18010KT 38/16 A2996 RMK A01 T03760157  RH  028%=      5-min Rain = 0
KME1 062136Z 18010KT 37/16 A2996 RMK A01 T03730157  RH  028%=      5-min Rain = 0
KME1 062137Z 16011KT 37/16 A2996 RMK A01 T03740160  RH  028%=      5-min Rain = 0
KME1 062138Z 17009KT 37/16 A2995 RMK A01 T03740162  RH  029%=      5-min Rain = 0
KME1 062139Z 18010G15KT 37/16 A2995 RMK A01 T03720160  RH  029%=      5-min Rain = 0
KME1 062140Z 18011KT 37/16 A2995 RMK A01 T03730159  RH  028%=      5-min Rain = 0
KME1 062141Z 19015KT 38/16 A2995 RMK A01 T03750155  RH  027%=      5-min Rain = 0
KME1 062142Z 17017G22KT 38/15 A2995 RMK A01 T03760154  RH  027%=      5-min Rain = 0
KME1 062143Z 16015KT 38/15 A2995 RMK A01 T03780153  RH  027%=      5-min Rain = 0
KME1 062144Z 18015G21KT 38/15 A2995 RMK A01 T03780153  RH  026%=      5-min Rain = 0
KME1 062145Z 18017G22KT 38/15 A2995 RMK A01 T03780151  RH  026%=      5-min Rain = 0
KME1 062146Z 18013KT 37/15 A2995 RMK A01 T03730151  RH  027%=      5-min Rain = 0
KME1 062147Z 18013KT 37/15 A2995 RMK A01 T03720153  RH  027%=      5-min Rain = 0
KME1 062148Z 18017KT 38/15 A2995 RMK A01 T03750154  RH  027%=      5-min Rain = 0
KME1 062149Z 17019KT 37/15 A2995 RMK A01 T03740153  RH  027%=      5-min Rain = 0
KME1 062150Z 16017KT 37/15 A2995 RMK A01 T03710153  RH  027%=      5-min Rain = 0
KME1 062151Z 16013KT 37/15 A2995 RMK A01 T03730154  RH  027%=      5-min Rain = 0
KME1 062152Z 18011KT 37/16 A2995 RMK A01 T03730155  RH  028%=      5-min Rain = 0
KME1 062153Z 16012KT 37/15 A2995 RMK A01 T03740154  RH  027%=      5-min Rain = 0
KME1 062154Z 16008KT 37/16 A2995 RMK A01 T03730155  RH  028%=      5-min Rain = 0
KME1 062155Z 17009KT 37/16 A2995 RMK A01 T03730156  RH  028%=      5-min Rain = 0
KME1 062156Z 17012G17KT 37/16 A2995 RMK A01 T03740155  RH  027%=      5-min Rain = 0
KME1 062157Z 16015KT 38/15 A2995 RMK A01 T03760150  RH  026%=      5-min Rain = 0
KME1 062158Z 16015KT 38/15 A2995 RMK A01 T03760148  RH  026%=      5-min Rain = 0
KME1 062159Z 16015KT 38/15 A2995 RMK A01 T03750146  RH  026%=      5-min Rain = 0
KME1 062200Z 16013G20KT 38/14 A2995 RMK A01 T03750144  RH  025%=      5-min Rain = 0
KME1 062201Z 15015KT 38/14 A2995 RMK A01 T03770144  RH  025%=      5-min Rain = 0
KME1 062202Z 14013KT 38/14 A2995 RMK A01 T03770144  RH  025%=      5-min Rain = 0
KME1 062203Z 15011KT 38/15 A2995 RMK A01 T03750147  RH  026%=      5-min Rain = 0
KME1 062204Z 15011KT 38/15 A2995 RMK A01 T03750148  RH  026%=      5-min Rain = 0
KME1 062205Z 14012G18KT 38/15 A2995 RMK A01 T03770149  RH  026%=      5-min Rain = 0
KME1 062206Z 15011KT 38/15 A2995 RMK A01 T03800150  RH  026%=      5-min Rain = 0
KME1 062207Z 16012KT 38/15 A2995 RMK A01 T03810150  RH  026%=      5-min Rain = 0
KME1 062208Z 13013KT 38/15 A2994 RMK A01 T03810151  RH  026%=      5-min Rain = 0
KME1 062209Z 14012KT 38/15 A2995 RMK A01 T03800152  RH  026%=      5-min Rain = 0
KME1 062210Z 14013KT 38/15 A2995 RMK A01 T03790152  RH  026%=      5-min Rain = 0
KME1 062211Z 16011KT 38/15 A2994 RMK A01 T03750151  RH  027%=      5-min Rain = 0
KME1 062212Z 13010KT 37/15 A2995 RMK A01 T03730150  RH  027%=      5-min Rain = 0
KME1 062213Z 13012KT 37/15 A2994 RMK A01 T03720148  RH  027%=      5-min Rain = 0
KME1 062214Z 15010KT 37/15 A2994 RMK A01 T03730150  RH  027%=      5-min Rain = 0
KME1 062215Z 14010KT 38/15 A2994 RMK A01 T03780149  RH  026%=      5-min Rain = 0
KME1 062216Z 14011KT 38/15 A2994 RMK A01 T03800146  RH  025%=      5-min Rain = 0
KME1 062217Z 15011G16KT 38/14 A2994 RMK A01 T03810144  RH  025%=      5-min Rain = 0
KME1 062218Z 17014KT 38/15 A2994 RMK A01 T03800146  RH  025%=      5-min Rain = 0
KME1 062219Z 17014KT 38/15 A2994 RMK A01 T03790146  RH  025%=      5-min Rain = 0
KME1 062220Z 17011KT 38/15 A2994 RMK A01 T03770145  RH  025%=      5-min Rain = 0
KME1 062221Z 19011KT 38/14 A2994 RMK A01 T03770142  RH  025%=      5-min Rain = 0
KME1 062222Z 17012KT 38/14 A2994 RMK A01 T03780142  RH  025%=      5-min Rain = 0
KME1 062223Z 18013KT 38/14 A2994 RMK A01 T03780142  RH  025%=      5-min Rain = 0
KME1 062224Z 18012KT 38/15 A2994 RMK A01 T03760145  RH  025%=      5-min Rain = 0
KME1 062225Z 18016KT 38/15 A2994 RMK A01 T03750146  RH  026%=      5-min Rain = 0
KME1 062226Z 19015KT 37/15 A2994 RMK A01 T03740147  RH  026%=      5-min Rain = 0
KME1 062227Z 18014KT 37/15 A2994 RMK A01 T03730146  RH  026%=      5-min Rain = 0
KME1 062228Z 18015KT 37/14 A2994 RMK A01 T03730144  RH  026%=      5-min Rain = 0
KME1 062229Z 17012KT 37/14 A2994 RMK A01 T03720144  RH  026%=      5-min Rain = 0
KME1 062230Z 18011KT 37/14 A2994 RMK A01 T03730143  RH  026%=      5-min Rain = 0
KME1 062231Z 18014KT 37/14 A2994 RMK A01 T03740142  RH  025%=      5-min Rain = 0
KME1 062232Z 19012KT 37/14 A2994 RMK A01 T03740137  RH  024%=      5-min Rain = 0
KME1 062233Z 19011KT 37/14 A2994 RMK A01 T03740138  RH  025%=      5-min Rain = 0
KME1 062234Z 19011KT 37/14 A2994 RMK A01 T03730141  RH  025%=      5-min Rain = 0
KME1 062235Z 18013G19KT 38/14 A2994 RMK A01 T03750143  RH  025%=      5-min Rain = 0
KME1 062236Z 17014KT 38/14 A2994 RMK A01 T03760141  RH  025%=      5-min Rain = 0
KME1 062237Z 15011KT 38/14 A2994 RMK A01 T03750143  RH  025%=      5-min Rain = 0
KME1 062238Z 16010G18KT 38/14 A2994 RMK A01 T03760143  RH  025%=      5-min Rain = 0
KME1 062239Z 17013KT 38/14 A2994 RMK A01 T03770143  RH  025%=      5-min Rain = 0
KME1 062240Z 16009KT 38/15 A2994 RMK A01 T03770145  RH  025%=      5-min Rain = 0
KME1 062241Z 18014KT 38/14 A2994 RMK A01 T03770143  RH  025%=      5-min Rain = 0
KME1 062242Z 19014KT 38/14 A2994 RMK A01 T03770144  RH  025%=      5-min Rain = 0
KME1 062243Z 18011KT 37/15 A2994 RMK A01 T03740145  RH  026%=      5-min Rain = 0
KME1 062244Z 19014G21KT 37/15 A2994 RMK A01 T03740146  RH  026%=      5-min Rain = 0
KME1 062245Z 17013G18KT 37/15 A2994 RMK A01 T03740146  RH  026%=      5-min Rain = 0
KME1 062246Z 16011G16KT 37/15 A2994 RMK A01 T03740146  RH  026%=      5-min Rain = 0
KME1 062247Z 14012G17KT 38/15 A2994 RMK A01 T03760146  RH  026%=      5-min Rain = 0
KME1 062248Z 16011KT 37/15 A2994 RMK A01 T03730146  RH  026%=      5-min Rain = 0
KME1 062249Z 18011KT 37/15 A2994 RMK A01 T03730147  RH  026%=      5-min Rain = 0
KME1 062250Z 18013KT 37/15 A2994 RMK A01 T03730148  RH  026%=      5-min Rain = 0
KME1 062251Z 16011KT 37/15 A2994 RMK A01 T03710149  RH  027%=      5-min Rain = 0
KME1 062252Z 16009KT 37/15 A2994 RMK A01 T03720148  RH  027%=      5-min Rain = 0
KME1 062253Z 15014KT 37/15 A2994 RMK A01 T03740149  RH  026%=      5-min Rain = 0
KME1 062254Z 17016KT 37/15 A2994 RMK A01 T03740148  RH  026%=      5-min Rain = 0
KME1 062255Z 18015KT 37/15 A2994 RMK A01 T03740146  RH  026%=      5-min Rain = 0
KME1 062256Z 17010KT 37/15 A2994 RMK A01 T03710145  RH  026%=      5-min Rain = 0
KME1 062257Z 16010G15KT 37/15 A2994 RMK A01 T03720146  RH  026%=      5-min Rain = 0
KME1 062258Z 16010KT 37/15 A2994 RMK A01 T03730146  RH  026%=      5-min Rain = 0
KME1 062259Z 17010KT 37/15 A2994 RMK A01 T03730146  RH  026%=      5-min Rain = 0
KME1 062300Z 18010KT 37/15 A2993 RMK A01 T03730147  RH  026%=      5-min Rain = 0
KME1 062301Z 18009KT 37/15 A2993 RMK A01 T03720146  RH  026%=      5-min Rain = 0
KME1 062302Z 18012KT 37/15 A2993 RMK A01 T03720145  RH  026%=      5-min Rain = 0
KME1 062303Z 17015KT 37/14 A2993 RMK A01 T03720144  RH  026%=      5-min Rain = 0
KME1 062304Z 18014G19KT 37/14 A2993 RMK A01 T03730143  RH  026%=      5-min Rain = 0
KME1 062305Z 17017KT 37/14 A2993 RMK A01 T03720139  RH  025%=      5-min Rain = 0
KME1 062306Z 16016G22KT 37/14 A2993 RMK A01 T03700137  RH  025%=      5-min Rain = 0
KME1 062307Z 15016KT 37/14 A2994 RMK A01 T03690135  RH  025%=      5-min Rain = 0
KME1 062308Z 15012KT 37/14 A2993 RMK A01 T03680135  RH  025%=      5-min Rain = 0
KME1 062309Z 15011KT 37/14 A2994 RMK A01 T03680136  RH  025%=      5-min Rain = 0
KME1 062310Z 16014KT 37/14 A2994 RMK A01 T03710137  RH  025%=      5-min Rain = 0
KME1 062311Z 15011KT 37/14 A2993 RMK A01 T03710137  RH  025%=      5-min Rain = 0
KME1 062312Z 15010KT 37/14 A2993 RMK A01 T03700138  RH  025%=      5-min Rain = 0
KME1 062313Z 13013KT 37/14 A2994 RMK A01 T03720139  RH  025%=      5-min Rain = 0
KME1 062314Z 13013KT 37/14 A2993 RMK A01 T03720140  RH  025%=      5-min Rain = 0
KME1 062315Z 14016KT 37/14 A2994 RMK A01 T03690141  RH  026%=      5-min Rain = 0
KME1 062316Z 16013KT 37/14 A2993 RMK A01 T03680142  RH  026%=      5-min Rain = 0
KME1 062317Z 16011KT 37/14 A2994 RMK A01 T03690144  RH  026%=      5-min Rain = 0
KME1 062318Z 16013KT 37/15 A2993 RMK A01 T03720145  RH  026%=      5-min Rain = 0
KME1 062319Z 16009KT 37/15 A2993 RMK A01 T03710145  RH  026%=      5-min Rain = 0
KME1 062320Z 17012KT 37/15 A2993 RMK A01 T03710146  RH  026%=      5-min Rain = 0
KME1 062321Z 17012KT 37/15 A2993 RMK A01 T03710147  RH  026%=      5-min Rain = 0
KME1 062322Z 17012KT 37/15 A2993 RMK A01 T03690148  RH  027%=      5-min Rain = 0
KME1 062323Z 16010KT 37/15 A2993 RMK A01 T03690147  RH  027%=      5-min Rain = 0
KME1 062324Z 16009KT 37/15 A2993 RMK A01 T03690146  RH  027%=      5-min Rain = 0
KME1 062325Z 14011KT 37/15 A2993 RMK A01 T03700146  RH  026%=      5-min Rain = 0
KME1 062326Z 16014KT 37/15 A2993 RMK A01 T03710145  RH  026%=      5-min Rain = 0
KME1 062327Z 15011KT 37/15 A2993 RMK A01 T03710145  RH  026%=      5-min Rain = 0
KME1 062328Z 15011KT 37/14 A2993 RMK A01 T03710142  RH  026%=      5-min Rain = 0
KME1 062329Z 16013KT 37/14 A2993 RMK A01 T03710142  RH  026%=      5-min Rain = 0
KME1 062330Z 16014KT 37/14 A2993 RMK A01 T03720141  RH  025%=      5-min Rain = 0
KME1 062331Z 16013KT 37/14 A2993 RMK A01 T03710140  RH  025%=      5-min Rain = 0
KME1 062332Z 15013KT 37/14 A2993 RMK A01 T03700140  RH  025%=      5-min Rain = 0
KME1 062333Z 15013KT 37/14 A2993 RMK A01 T03690139  RH  025%=      5-min Rain = 0
KME1 062334Z 14013KT 37/14 A2993 RMK A01 T03690140  RH  026%=      5-min Rain = 0
KME1 062335Z 14013KT 37/14 A2993 RMK A01 T03670138  RH  025%=      5-min Rain = 0
KME1 062336Z 15010KT 37/14 A2993 RMK A01 T03660139  RH  026%=      5-min Rain = 0
KME1 062337Z 15010KT 37/14 A2993 RMK A01 T03650139  RH  026%=      5-min Rain = 0
KME1 062338Z 16009KT 36/14 A2993 RMK A01 T03640140  RH  026%=      5-min Rain = 0
KME1 062339Z 16010KT 36/14 A2993 RMK A01 T03640141  RH  026%=      5-min Rain = 0
KME1 062340Z 16010KT 36/14 A2993 RMK A01 T03640142  RH  026%=      5-min Rain = 0
KME1 062341Z 17012KT 37/14 A2993 RMK A01 T03650143  RH  027%=      5-min Rain = 0
KME1 062342Z 16015KT 37/14 A2993 RMK A01 T03660143  RH  027%=      5-min Rain = 0
KME1 062343Z 16015KT 37/15 A2993 RMK A01 T03650145  RH  027%=      5-min Rain = 0
KME1 062344Z 16013G18KT 37/15 A2993 RMK A01 T03650145  RH  027%=      5-min Rain = 0
KME1 062345Z 17014KT 36/15 A2993 RMK A01 T03640145  RH  027%=      5-min Rain = 0
KME1 062346Z 18011KT 36/14 A2993 RMK A01 T03630144  RH  027%=      5-min Rain = 0
KME1 062347Z 17012G17KT 36/14 A2993 RMK A01 T03630144  RH  027%=      5-min Rain = 0
KME1 062348Z 17012KT 36/15 A2993 RMK A01 T03630145  RH  027%=      5-min Rain = 0
KME1 062349Z 16010KT 37/14 A2993 RMK A01 T03650144  RH  027%=      5-min Rain = 0
KME1 062350Z 15009KT 37/14 A2993 RMK A01 T03650144  RH  027%=      5-min Rain = 0
KME1 062351Z 16009KT 37/14 A2993 RMK A01 T03650144  RH  027%=      5-min Rain = 0
KME1 062352Z 16008KT 37/14 A2993 RMK A01 T03660143  RH  027%=      5-min Rain = 0
KME1 062353Z 15011G17KT 37/14 A2993 RMK A01 T03660142  RH  026%=      5-min Rain = 0
KME1 062354Z 16015KT 37/14 A2993 RMK A01 T03660139  RH  026%=      5-min Rain = 0
KME1 062355Z 15014G20KT 37/14 A2993 RMK A01 T03660140  RH  026%=      5-min Rain = 0
KME1 062356Z 16015KT 36/14 A2993 RMK A01 T03640141  RH  027%=      5-min Rain = 0
KME1 062357Z 16013G18KT 36/14 A2993 RMK A01 T03620143  RH  027%=      5-min Rain = 0
KME1 062358Z 16010KT 36/14 A2993 RMK A01 T03630144  RH  027%=      5-min Rain = 0
KME1 062359Z 14011KT 37/15 A2993 RMK A01 T03650145  RH  027%=      5-min Rain = 0
KME1 070000Z 14012KT 37/14 A2993 RMK A01 T03650144  RH  027%=      5-min Rain = 0
KME1 070001Z 16008KT 36/14 A2993 RMK A01 T03630144  RH  027%=      5-min Rain = 0
KME1 070002Z 16011G16KT 36/14 A2993 RMK A01 T03630142  RH  027%=      5-min Rain = 0
KME1 070003Z 17011G16KT 36/14 A2993 RMK A01 T03630142  RH  027%=      5-min Rain = 0
KME1 070004Z 16011KT 36/14 A2993 RMK A01 T03630143  RH  027%=      5-min Rain = 0
KME1 070005Z 16012G19KT 36/14 A2993 RMK A01 T03630143  RH  027%=      5-min Rain = 0
KME1 070006Z 17015KT 36/14 A2993 RMK A01 T03630141  RH  027%=      5-min Rain = 0
KME1 070007Z 17012KT 36/14 A2993 RMK A01 T03620140  RH  027%=      5-min Rain = 0
KME1 070008Z 16013KT 36/14 A2993 RMK A01 T03620139  RH  026%=      5-min Rain = 0
KME1 070009Z 16010KT 36/14 A2993 RMK A01 T03620138  RH  026%=      5-min Rain = 0
KME1 070010Z 16011KT 36/14 A2993 RMK A01 T03610138  RH  026%=      5-min Rain = 0
KME1 070011Z 15013KT 36/14 A2993 RMK A01 T03620138  RH  026%=      5-min Rain = 0
KME1 070012Z 16009KT 36/14 A2993 RMK A01 T03610138  RH  026%=      5-min Rain = 0
KME1 070013Z 18010KT 36/14 A2993 RMK A01 T03610138  RH  026%=      5-min Rain = 0
KME1 070014Z 17012G17KT 36/14 A2993 RMK A01 T03610136  RH  026%=      5-min Rain = 0
KME1 070015Z 17014KT 36/14 A2993 RMK A01 T03610136  RH  026%=      5-min Rain = 0
KME1 070016Z 17013KT 36/14 A2993 RMK A01 T03600135  RH  026%=      5-min Rain = 0
KME1 070017Z 16012KT 36/13 A2993 RMK A01 T03600134  RH  026%=      5-min Rain = 0
KME1 070018Z 17013KT 36/13 A2993 RMK A01 T03600134  RH  026%=      5-min Rain = 0
KME1 070019Z 16010KT 36/14 A2993 RMK A01 T03600136  RH  026%=      5-min Rain = 0
KME1 070020Z 16010G15KT 36/14 A2993 RMK A01 T03590136  RH  026%=      5-min Rain = 0
KME1 070021Z 16010KT 36/14 A2993 RMK A01 T03590137  RH  026%=      5-min Rain = 0
KME1 070022Z 15008KT 36/14 A2993 RMK A01 T03600136  RH  026%=      5-min Rain = 0
KME1 070023Z 15010KT 36/14 A2993 RMK A01 T03600136  RH  026%=      5-min Rain = 0
KME1 070024Z 15012KT 36/14 A2993 RMK A01 T03590136  RH  026%=      5-min Rain = 0
KME1 070025Z 16011KT 36/14 A2993 RMK A01 T03580136  RH  027%=      5-min Rain = 0
KME1 070026Z 17013KT 36/14 A2993 RMK A01 T03580137  RH  027%=      5-min Rain = 0
KME1 070027Z 16012KT 36/14 A2993 RMK A01 T03580137  RH  027%=      5-min Rain = 0
KME1 070028Z 16011KT 36/14 A2994 RMK A01 T03580137  RH  027%=      5-min Rain = 0
KME1 070029Z 17012G17KT 36/14 A2994 RMK A01 T03570138  RH  027%=      5-min Rain = 0
KME1 070030Z 17011KT 36/14 A2994 RMK A01 T03570140  RH  027%=      5-min Rain = 0
KME1 070031Z 16010KT 36/14 A2994 RMK A01 T03570141  RH  028%=      5-min Rain = 0
KME1 070032Z 15010KT 36/14 A2994 RMK A01 T03560141  RH  028%=      5-min Rain = 0
KME1 070033Z 16009KT 36/14 A2994 RMK A01 T03560141  RH  028%=      5-min Rain = 0
KME1 070034Z 16008KT 36/14 A2994 RMK A01 T03560141  RH  028%=      5-min Rain = 0
KME1 070035Z 16012KT 36/14 A2994 RMK A01 T03550141  RH  028%=      5-min Rain = 0
KME1 070036Z 16015KT 36/14 A2994 RMK A01 T03550136  RH  027%=      5-min Rain = 0
KME1 070037Z 16013KT 35/13 A2994 RMK A01 T03540134  RH  027%=      5-min Rain = 0
KME1 070038Z 16010KT 35/13 A2994 RMK A01 T03540134  RH  027%=      5-min Rain = 0
KME1 070039Z 16013KT 35/14 A2994 RMK A01 T03540135  RH  027%=      5-min Rain = 0
KME1 070040Z 17011KT 35/13 A2994 RMK A01 T03540134  RH  027%=      5-min Rain = 0
KME1 070041Z 16011G16KT 35/13 A2994 RMK A01 T03540133  RH  027%=      5-min Rain = 0
KME1 070042Z 15012KT 35/13 A2994 RMK A01 T03540134  RH  027%=      5-min Rain = 0
KME1 070043Z 15012KT 35/14 A2994 RMK A01 T03530136  RH  027%=      5-min Rain = 0
KME1 070044Z 16010KT 35/14 A2994 RMK A01 T03530137  RH  027%=      5-min Rain = 0
KME1 070045Z 16010KT 35/14 A2994 RMK A01 T03530137  RH  027%=      5-min Rain = 0
KME1 070046Z 16010KT 35/14 A2994 RMK A01 T03520138  RH  028%=      5-min Rain = 0
KME1 070047Z 16011KT 35/14 A2994 RMK A01 T03520139  RH  028%=      5-min Rain = 0
KME1 070048Z 16011KT 35/14 A2994 RMK A01 T03510140  RH  028%=      5-min Rain = 0
KME1 070049Z 14012KT 35/14 A2994 RMK A01 T03510140  RH  028%=      5-min Rain = 0
KME1 070050Z 15009KT 35/14 A2994 RMK A01 T03510140  RH  028%=      5-min Rain = 0
KME1 070051Z 15011KT 35/14 A2994 RMK A01 T03500140  RH  028%=      5-min Rain = 0
KME1 070052Z 14009G14KT 35/14 A2994 RMK A01 T03500139  RH  028%=      5-min Rain = 0
KME1 070053Z 15009KT 35/14 A2994 RMK A01 T03500140  RH  028%=      5-min Rain = 0
KME1 070054Z 15010KT 35/14 A2994 RMK A01 T03500139  RH  028%=      5-min Rain = 0
KME1 070055Z 15011KT 35/14 A2994 RMK A01 T03490139  RH  028%=      5-min Rain = 0
KME1 070056Z 14012KT 35/14 A2995 RMK A01 T03480138  RH  028%=      5-min Rain = 0
KME1 070057Z 15015KT 35/14 A2995 RMK A01 T03480139  RH  029%=      5-min Rain = 0
KME1 070058Z 15011G17KT 35/14 A2995 RMK A01 T03470140  RH  029%=      5-min Rain = 0
KME1 070059Z 15012KT 35/14 A2995 RMK A01 T03460140  RH  029%=      5-min Rain = 0
KME1 070100Z 15012KT 35/14 A2995 RMK A01 T03460140  RH  029%=      5-min Rain = 0
KME1 070101Z 15013KT 35/14 A2995 RMK A01 T03460141  RH  029%=      5-min Rain = 0
KME1 070102Z 16011KT 35/14 A2995 RMK A01 T03450141  RH  029%=      5-min Rain = 0
KME1 070103Z 16010KT 35/14 A2995 RMK A01 T03450142  RH  030%=      5-min Rain = 0
KME1 070104Z 15010KT 34/14 A2995 RMK A01 T03440142  RH  030%=      5-min Rain = 0
KME1 070105Z 15008KT 34/14 A2995 RMK A01 T03440142  RH  030%=      5-min Rain = 0
KME1 070106Z 15011KT 34/14 A2995 RMK A01 T03430142  RH  030%=      5-min Rain = 0
KME1 070107Z 16011KT 34/14 A2995 RMK A01 T03430143  RH  030%=      5-min Rain = 0
KME1 070108Z 16011KT 34/14 A2995 RMK A01 T03430143  RH  030%=      5-min Rain = 0
KME1 070109Z 16010KT 34/14 A2995 RMK A01 T03420144  RH  030%=      5-min Rain = 0
KME1 070110Z 15013KT 34/14 A2995 RMK A01 T03420144  RH  030%=      5-min Rain = 0
KME1 070111Z 16012KT 34/14 A2995 RMK A01 T03420144  RH  030%=      5-min Rain = 0
KME1 070112Z 15009KT 34/14 A2995 RMK A01 T03420144  RH  031%=      5-min Rain = 0
KME1 070113Z 15010KT 34/14 A2995 RMK A01 T03410144  RH  031%=      5-min Rain = 0
KME1 070114Z 15011KT 34/14 A2995 RMK A01 T03400144  RH  031%=      5-min Rain = 0
KME1 070115Z 15011KT 34/14 A2995 RMK A01 T03400144  RH  031%=      5-min Rain = 0
KME1 070116Z 16009KT 34/14 A2995 RMK A01 T03400144  RH  031%=      5-min Rain = 0
KME1 070117Z 15010KT 34/14 A2995 RMK A01 T03390144  RH  031%=      5-min Rain = 0
KME1 070118Z 16010KT 34/15 A2995 RMK A01 T03390145  RH  031%=      5-min Rain = 0
KME1 070119Z 16009KT 34/15 A2995 RMK A01 T03390145  RH  031%=      5-min Rain = 0
KME1 070120Z 16009KT 34/14 A2995 RMK A01 T03380144  RH  031%=      5-min Rain = 0
KME1 070121Z 16010KT 34/14 A2995 RMK A01 T03370144  RH  031%=      5-min Rain = 0
KME1 070122Z 15009KT 34/14 A2995 RMK A01 T03380144  RH  031%=      5-min Rain = 0
KME1 070123Z 16008KT 34/14 A2995 RMK A01 T03370143  RH  031%=      5-min Rain = 0
KME1 070124Z 16009KT 34/14 A2995 RMK A01 T03370144  RH  031%=      5-min Rain = 0
KME1 070125Z 15008KT 34/14 A2995 RMK A01 T03360144  RH  032%=      5-min Rain = 0
KME1 070126Z 15009KT 34/14 A2995 RMK A01 T03350144  RH  032%=      5-min Rain = 0
KME1 070127Z 16009KT 34/15 A2995 RMK A01 T03350145  RH  032%=      5-min Rain = 0
KME1 070128Z 16009KT 34/15 A2995 RMK A01 T03350145  RH  032%=      5-min Rain = 0
KME1 070129Z 16009KT 34/15 A2995 RMK A01 T03350145  RH  032%=      5-min Rain = 0
KME1 070130Z 16008KT 34/15 A2995 RMK A01 T03350145  RH  032%=      5-min Rain = 0
KME1 070131Z 16010G15KT 33/15 A2995 RMK A01 T03340145  RH  032%=      5-min Rain = 0
KME1 070132Z 16009KT 33/15 A2995 RMK A01 T03340145  RH  032%=      5-min Rain = 0
KME1 070133Z 16010KT 33/15 A2996 RMK A01 T03340145  RH  032%=      5-min Rain = 0
KME1 070134Z 15008KT 33/15 A2996 RMK A01 T03330145  RH  032%=      5-min Rain = 0
KME1 070135Z 15008KT 33/15 A2996 RMK A01 T03330145  RH  032%=      5-min Rain = 0
KME1 070136Z 15008KT 33/15 A2996 RMK A01 T03330145  RH  032%=      5-min Rain = 0
KME1 070137Z 15007KT 33/15 A2996 RMK A01 T03330145  RH  032%=      5-min Rain = 0
KME1 070138Z 15007KT 33/15 A2996 RMK A01 T03320145  RH  032%=      5-min Rain = 0
KME1 070139Z 15008KT 33/15 A2996 RMK A01 T03310145  RH  033%=      5-min Rain = 0
KME1 070140Z 15008KT 33/15 A2996 RMK A01 T03300145  RH  033%=      5-min Rain = 0
KME1 070141Z 14009KT 33/14 A2996 RMK A01 T03300144  RH  033%=      5-min Rain = 0
KME1 070142Z 15007KT 33/14 A2996 RMK A01 T03300143  RH  033%=      5-min Rain = 0
KME1 070143Z 15006KT 33/14 A2996 RMK A01 T03300143  RH  032%=      5-min Rain = 0
KME1 070144Z 15007KT 33/14 A2996 RMK A01 T03290143  RH  033%=      5-min Rain = 0
KME1 070145Z 15007KT 33/14 A2996 RMK A01 T03280143  RH  033%=      5-min Rain = 0
KME1 070146Z 15010KT 33/14 A2996 RMK A01 T03280143  RH  033%=      5-min Rain = 0
KME1 070147Z 15007KT 33/14 A2996 RMK A01 T03280142  RH  033%=      5-min Rain = 0
KME1 070148Z 15007KT 33/14 A2996 RMK A01 T03290143  RH  033%=      5-min Rain = 0
KME1 070149Z 14008KT 33/14 A2996 RMK A01 T03280142  RH  033%=      5-min Rain = 0
KME1 070150Z 15008KT 33/14 A2996 RMK A01 T03280142  RH  033%=      5-min Rain = 0
KME1 070151Z 15008KT 33/14 A2996 RMK A01 T03270142  RH  033%=      5-min Rain = 0
KME1 070152Z 14008KT 33/14 A2996 RMK A01 T03260142  RH  033%=      5-min Rain = 0
KME1 070153Z 15007KT 33/14 A2996 RMK A01 T03260142  RH  033%=      5-min Rain = 0
KME1 070154Z 15008KT 33/14 A2996 RMK A01 T03250142  RH  033%=      5-min Rain = 0
KME1 070155Z 15008KT 33/14 A2996 RMK A01 T03250142  RH  033%=      5-min Rain = 0
KME1 070156Z 15007KT 33/14 A2996 RMK A01 T03250142  RH  033%=      5-min Rain = 0
KME1 070157Z 15008KT 32/14 A2996 RMK A01 T03240142  RH  033%=      5-min Rain = 0
KME1 070158Z 16007KT 32/14 A2996 RMK A01 T03240142  RH  033%=      5-min Rain = 0
KME1 070159Z 15008KT 32/14 A2996 RMK A01 T03240142  RH  033%=      5-min Rain = 0
KME1 070200Z 15007KT 32/14 A2996 RMK A01 T03240142  RH  033%=      5-min Rain = 0
KME1 070201Z 15009KT 32/14 A2996 RMK A01 T03240142  RH  033%=      5-min Rain = 0
KME1 070202Z 15009KT 32/14 A2996 RMK A01 T03240142  RH  033%=      5-min Rain = 0
KME1 070203Z 15006KT 32/14 A2996 RMK A01 T03240143  RH  033%=      5-min Rain = 0
KME1 070204Z 15006KT 32/14 A2996 RMK A01 T03230142  RH  034%=      5-min Rain = 0
KME1 070205Z 15008KT 32/14 A2996 RMK A01 T03220143  RH  034%=      5-min Rain = 0
KME1 070206Z 15007KT 32/14 A2996 RMK A01 T03220142  RH  034%=      5-min Rain = 0
KME1 070207Z 15006KT 32/14 A2996 RMK A01 T03210142  RH  034%=      5-min Rain = 0
KME1 070208Z 15006KT 32/14 A2997 RMK A01 T03210142  RH  034%=      5-min Rain = 0
KME1 070209Z 15007KT 32/14 A2997 RMK A01 T03200142  RH  034%=      5-min Rain = 0
KME1 070210Z 15006KT 32/14 A2997 RMK A01 T03200142  RH  034%=      5-min Rain = 0
KME1 070211Z 15006KT 32/14 A2997 RMK A01 T03200142  RH  034%=      5-min Rain = 0
KME1 070212Z 15008KT 32/14 A2997 RMK A01 T03190141  RH  034%=      5-min Rain = 0
KME1 070213Z 14009KT 32/14 A2997 RMK A01 T03190142  RH  034%=      5-min Rain = 0
KME1 070214Z 14008KT 32/14 A2997 RMK A01 T03200141  RH  034%=      5-min Rain = 0
KME1 070215Z 15009KT 32/14 A2997 RMK A01 T03200142  RH  034%=      5-min Rain = 0
KME1 070216Z 14008KT 32/14 A2997 RMK A01 T03200142  RH  034%=      5-min Rain = 0
KME1 070217Z 14008KT 32/14 A2997 RMK A01 T03200142  RH  034%=      5-min Rain = 0
KME1 070218Z 15008KT 32/14 A2997 RMK A01 T03200142  RH  034%=      5-min Rain = 0
KME1 070219Z 14008KT 32/14 A2997 RMK A01 T03200142  RH  034%=      5-min Rain = 0
KME1 070220Z 15007KT 32/14 A2997 RMK A01 T03200142  RH  034%=      5-min Rain = 0
KME1 070221Z 15008KT 32/14 A2997 RMK A01 T03190142  RH  034%=      5-min Rain = 0
KME1 070222Z 15006KT 32/14 A2997 RMK A01 T03190142  RH  034%=      5-min Rain = 0
KME1 070223Z 14006KT 32/14 A2997 RMK A01 T03180142  RH  034%=      5-min Rain = 0
KME1 070224Z 15008KT 32/14 A2997 RMK A01 T03180141  RH  034%=      5-min Rain = 0
KME1 070225Z 15008KT 32/14 A2997 RMK A01 T03170141  RH  034%=      5-min Rain = 0
KME1 070226Z 15008KT 32/14 A2997 RMK A01 T03170141  RH  034%=      5-min Rain = 0
KME1 070227Z 15008KT 32/14 A2997 RMK A01 T03170141  RH  034%=      5-min Rain = 0
KME1 070228Z 14008KT 32/14 A2997 RMK A01 T03170142  RH  035%=      5-min Rain = 0
KME1 070229Z 15009KT 32/14 A2997 RMK A01 T03170142  RH  035%=      5-min Rain = 0
KME1 070230Z 15008KT 32/14 A2997 RMK A01 T03170142  RH  035%=      5-min Rain = 0
KME1 070231Z 15006KT 32/14 A2997 RMK A01 T03170142  RH  035%=      5-min Rain = 0
KME1 070232Z 15008KT 32/14 A2997 RMK A01 T03160142  RH  035%=      5-min Rain = 0
KME1 070233Z 14007KT 32/14 A2998 RMK A01 T03160143  RH  035%=      5-min Rain = 0
KME1 070234Z 15008KT 32/14 A2998 RMK A01 T03160143  RH  035%=      5-min Rain = 0
KME1 070235Z 15008KT 32/14 A2998 RMK A01 T03150143  RH  035%=      5-min Rain = 0
KME1 070236Z 15008KT 32/14 A2998 RMK A01 T03150143  RH  035%=      5-min Rain = 0
KME1 070237Z 15007KT 32/14 A2998 RMK A01 T03150144  RH  035%=      5-min Rain = 0
KME1 070238Z 15008KT 32/14 A2998 RMK A01 T03150144  RH  035%=      5-min Rain = 0
KME1 070239Z 14009KT 32/14 A2998 RMK A01 T03150144  RH  036%=      5-min Rain = 0
KME1 070240Z 15006KT 31/14 A2998 RMK A01 T03140144  RH  036%=      5-min Rain = 0
KME1 070241Z 15008KT 31/14 A2998 RMK A01 T03140144  RH  036%=      5-min Rain = 0
KME1 070242Z 15008KT 31/15 A2998 RMK A01 T03140145  RH  036%=      5-min Rain = 0
KME1 070243Z 15009KT 31/15 A2998 RMK A01 T03140145  RH  036%=      5-min Rain = 0
KME1 070244Z 15007KT 31/15 A2998 RMK A01 T03140145  RH  036%=      5-min Rain = 0
KME1 070245Z 15006KT 31/15 A2998 RMK A01 T03140145  RH  036%=      5-min Rain = 0
KME1 070246Z 15007KT 31/15 A2998 RMK A01 T03140145  RH  036%=      5-min Rain = 0
KME1 070247Z 15009KT 31/15 A2998 RMK A01 T03140146  RH  036%=      5-min Rain = 0
KME1 070248Z 16008KT 31/15 A2998 RMK A01 T03140146  RH  036%=      5-min Rain = 0
KME1 070249Z 16007KT 31/15 A2998 RMK A01 T03140146  RH  036%=      5-min Rain = 0
KME1 070250Z 15008KT 31/15 A2998 RMK A01 T03140146  RH  036%=      5-min Rain = 0
KME1 070251Z 15010KT 31/15 A2998 RMK A01 T03130147  RH  036%=      5-min Rain = 0
KME1 070252Z 15008KT 31/15 A2998 RMK A01 T03130146  RH  036%=      5-min Rain = 0
KME1 070253Z 15008KT 31/15 A2998 RMK A01 T03130147  RH  036%=      5-min Rain = 0
KME1 070254Z 15009KT 31/15 A2998 RMK A01 T03130147  RH  037%=      5-min Rain = 0
KME1 070255Z 15009KT 31/15 A2998 RMK A01 T03130148  RH  037%=      5-min Rain = 0
KME1 070256Z 15007KT 31/15 A2999 RMK A01 T03130148  RH  037%=      5-min Rain = 0
KME1 070257Z 15007KT 31/15 A2999 RMK A01 T03120148  RH  037%=      5-min Rain = 0
KME1 070258Z 16007KT 31/15 A2999 RMK A01 T03120148  RH  037%=      5-min Rain = 0
KME1 070259Z 15008KT 31/15 A2999 RMK A01 T03120148  RH  037%=      5-min Rain = 0
KME1 070300Z 15007KT 31/15 A2999 RMK A01 T03120148  RH  037%=      5-min Rain = 0
KME1 070301Z 15008KT 31/15 A2999 RMK A01 T03120149  RH  037%=      5-min Rain = 0
KME1 070302Z 16009KT 31/15 A2999 RMK A01 T03120149  RH  037%=      5-min Rain = 0
KME1 070303Z 15009KT 31/15 A2999 RMK A01 T03120150  RH  037%=      5-min Rain = 0
KME1 070304Z 16008KT 31/15 A2999 RMK A01 T03120150  RH  037%=      5-min Rain = 0
KME1 070305Z 15009KT 31/15 A2999 RMK A01 T03120150  RH  037%=      5-min Rain = 0
KME1 070306Z 15008KT 31/15 A2999 RMK A01 T03120150  RH  038%=      5-min Rain = 0
KME1 070307Z 15007KT 31/15 A2999 RMK A01 T03120150  RH  038%=      5-min Rain = 0
KME1 070308Z 16008KT 31/15 A2999 RMK A01 T03110151  RH  038%=      5-min Rain = 0
KME1 070309Z 15006KT 31/15 A2999 RMK A01 T03110151  RH  038%=      5-min Rain = 0
KME1 070310Z 16008KT 31/15 A2999 RMK A01 T03110151  RH  038%=      5-min Rain = 0
KME1 070311Z 15007KT 31/15 A2999 RMK A01 T03100151  RH  038%=      5-min Rain = 0
KME1 070312Z 15007KT 31/15 A2999 RMK A01 T03100151  RH  038%=      5-min Rain = 0
KME1 070313Z 16008KT 31/15 A2999 RMK A01 T03100152  RH  038%=      5-min Rain = 0
KME1 070314Z 16008KT 31/15 A2999 RMK A01 T03100152  RH  038%=      5-min Rain = 0
KME1 070315Z 15011KT 31/15 A2999 RMK A01 T03100152  RH  038%=      5-min Rain = 0
KME1 070316Z 15010KT 31/15 A2999 RMK A01 T03100153  RH  039%=      5-min Rain = 0
KME1 070317Z 16008KT 31/15 A2999 RMK A01 T03110153  RH  038%=      5-min Rain = 0
KME1 070318Z 16009KT 31/15 A2999 RMK A01 T03110153  RH  038%=      5-min Rain = 0
KME1 070319Z 16012KT 31/15 A2999 RMK A01 T03110153  RH  039%=      5-min Rain = 0
KME1 070320Z 16010KT 31/15 A2999 RMK A01 T03110154  RH  039%=      5-min Rain = 0
KME1 070321Z 16011KT 31/15 A2999 RMK A01 T03110153  RH  038%=      5-min Rain = 0
KME1 070322Z 15008KT 31/15 A2999 RMK A01 T03120154  RH  039%=      5-min Rain = 0
KME1 070323Z 16009KT 31/15 A2999 RMK A01 T03120154  RH  039%=      5-min Rain = 0
KME1 070324Z 16010KT 31/15 A2999 RMK A01 T03120154  RH  039%=      5-min Rain = 0
KME1 070325Z 16010KT 31/15 A2999 RMK A01 T03110154  RH  039%=      5-min Rain = 0
KME1 070326Z 16010KT 31/15 A2999 RMK A01 T03110154  RH  039%=      5-min Rain = 0
KME1 070327Z 16008KT 31/15 A30 RMK A01 T03110154  RH  039%=      5-min Rain = 0
KME1 070328Z 16008KT 31/15 A30 RMK A01 T03100154  RH  039%=      5-min Rain = 0
KME1 070329Z 15011KT 31/15 A30 RMK A01 T03100154  RH  039%=      5-min Rain = 0
KME1 070330Z 16011KT 31/16 A30 RMK A01 T03100155  RH  039%=      5-min Rain = 0
KME1 070331Z 16012KT 31/15 A30 RMK A01 T03100154  RH  039%=      5-min Rain = 0
KME1 070332Z 16012KT 31/16 A30 RMK A01 T03100155  RH  039%=      5-min Rain = 0
KME1 070333Z 16009KT 31/16 A30 RMK A01 T03100155  RH  039%=      5-min Rain = 0
KME1 070334Z 17009KT 31/16 A30 RMK A01 T03100155  RH  039%=      5-min Rain = 0
KME1 070335Z 16011KT 31/16 A30 RMK A01 T03100155  RH  039%=      5-min Rain = 0
KME1 070336Z 16010KT 31/16 A30 RMK A01 T03100155  RH  039%=      5-min Rain = 0
KME1 070337Z 15012KT 31/16 A30 RMK A01 T03090155  RH  039%=      5-min Rain = 0
KME1 070338Z 16009KT 31/16 A30 RMK A01 T03100155  RH  039%=      5-min Rain = 0
KME1 070339Z 16009KT 31/16 A30 RMK A01 T03090155  RH  039%=      5-min Rain = 0
KME1 070340Z 16011KT 31/16 A30 RMK A01 T03090155  RH  039%=      5-min Rain = 0
KME1 070341Z 16009KT 31/16 A30 RMK A01 T03090155  RH  039%=      5-min Rain = 0
KME1 070342Z 16011KT 31/16 A30 RMK A01 T03080155  RH  039%=      5-min Rain = 0
KME1 070343Z 16009KT 31/16 A30 RMK A01 T03080155  RH  039%=      5-min Rain = 0
KME1 070344Z 16009KT 31/16 A30 RMK A01 T03080155  RH  039%=      5-min Rain = 0
KME1 070345Z 16007KT 31/15 A30 RMK A01 T03080154  RH  039%=      5-min Rain = 0
KME1 070346Z 16008KT 31/15 A30 RMK A01 T03070154  RH  040%=      5-min Rain = 0
KME1 070347Z 16008KT 31/15 A30 RMK A01 T03070154  RH  040%=      5-min Rain = 0
KME1 070348Z 16012KT 31/15 A30 RMK A01 T03060154  RH  040%=      5-min Rain = 0
KME1 070349Z 17012KT 31/15 A30 RMK A01 T03060154  RH  040%=      5-min Rain = 0
KME1 070350Z 16010G15KT 31/16 A30 RMK A01 T03070155  RH  040%=      5-min Rain = 0
KME1 070351Z 16008KT 31/15 A30 RMK A01 T03080154  RH  040%=      5-min Rain = 0
KME1 070352Z 16011KT 31/15 A30 RMK A01 T03070154  RH  040%=      5-min Rain = 0
KME1 070353Z 16010KT 31/15 A30 RMK A01 T03070154  RH  040%=      5-min Rain = 0
KME1 070354Z 16009KT 31/15 A30 RMK A01 T03070154  RH  040%=      5-min Rain = 0
KME1 070355Z 16008KT 31/15 A30 RMK A01 T03070154  RH  040%=      5-min Rain = 0
KME1 070356Z 16009KT 31/15 A30 RMK A01 T03060154  RH  040%=      5-min Rain = 0
KME1 070357Z 16011KT 31/15 A30 RMK A01 T03050154  RH  040%=      5-min Rain = 0
KME1 070358Z 16010KT 31/15 A30 RMK A01 T03050154  RH  040%=      5-min Rain = 0
KME1 070359Z 17010KT 31/15 A30 RMK A01 T03050154  RH  040%=      5-min Rain = 0
KME1 070400Z 16010G15KT 31/15 A30 RMK A01 T03050154  RH  040%=      5-min Rain = 0
KME1 070401Z 16010G15KT 31/15 A30 RMK A01 T03050154  RH  040%=      5-min Rain = 0
KME1 070402Z 17009KT 31/15 A3001 RMK A01 T03050154  RH  040%=      5-min Rain = 0
KME1 070403Z 16010KT 31/15 A3001 RMK A01 T03050154  RH  040%=      5-min Rain = 0
KME1 070404Z 16012KT 31/15 A3001 RMK A01 T03050154  RH  040%=      5-min Rain = 0
KME1 070405Z 16010KT 31/15 A3001 RMK A01 T03050154  RH  040%=      5-min Rain = 0
KME1 070406Z 16008KT 30/15 A3001 RMK A01 T03040154  RH  040%=      5-min Rain = 0
KME1 070407Z 17007KT 30/15 A3001 RMK A01 T03040154  RH  040%=      5-min Rain = 0
KME1 070408Z 16010KT 30/15 A3001 RMK A01 T03030154  RH  040%=      5-min Rain = 0
KME1 070409Z 17009KT 30/15 A3001 RMK A01 T03030154  RH  040%=      5-min Rain = 0
KME1 070410Z 16010KT 30/15 A3001 RMK A01 T03030154  RH  040%=      5-min Rain = 0
KME1 070411Z 16010KT 30/15 A3001 RMK A01 T03030154  RH  041%=      5-min Rain = 0
KME1 070412Z 17007KT 30/15 A3001 RMK A01 T03020154  RH  041%=      5-min Rain = 0
KME1 070413Z 16009KT 30/15 A3001 RMK A01 T03030154  RH  041%=      5-min Rain = 0
KME1 070414Z 16010KT 30/15 A3001 RMK A01 T03020154  RH  041%=      5-min Rain = 0
KME1 070415Z 16010KT 30/15 A3001 RMK A01 T03020154  RH  041%=      5-min Rain = 0
KME1 070416Z 17010KT 30/15 A3001 RMK A01 T03020154  RH  041%=      5-min Rain = 0
KME1 070417Z 17010KT 30/15 A3001 RMK A01 T03020154  RH  041%=      5-min Rain = 0
KME1 070418Z 17013KT 30/15 A3001 RMK A01 T03020154  RH  041%=      5-min Rain = 0
KME1 070419Z 17011KT 30/15 A3001 RMK A01 T03020154  RH  041%=      5-min Rain = 0
KME1 070420Z 17010KT 30/15 A3001 RMK A01 T03020154  RH  041%=      5-min Rain = 0
KME1 070421Z 17010KT 30/15 A3001 RMK A01 T03020154  RH  041%=      5-min Rain = 0
KME1 070422Z 17010KT 30/15 A3001 RMK A01 T03020154  RH  041%=      5-min Rain = 0
KME1 070423Z 17009KT 30/15 A3001 RMK A01 T03010154  RH  041%=      5-min Rain = 0
KME1 070424Z 17011KT 30/15 A3001 RMK A01 T03010154  RH  041%=      5-min Rain = 0
KME1 070425Z 16010KT 30/15 A3001 RMK A01 T03010154  RH  041%=      5-min Rain = 0
KME1 070426Z 17009KT 30/15 A3001 RMK A01 T03010154  RH  041%=      5-min Rain = 0
KME1 070427Z 17010G16KT 30/15 A3001 RMK A01 T03010154  RH  041%=      5-min Rain = 0
KME1 070428Z 17013KT 30/16 A3001 RMK A01 T03000155  RH  041%=      5-min Rain = 0
KME1 070429Z 17010KT 30/15 A3001 RMK A01 T03000154  RH  041%=      5-min Rain = 0
KME1 070430Z 17007KT 30/15 A3001 RMK A01 T03000154  RH  041%=      5-min Rain = 0
KME1 070431Z 16006KT 30/15 A3001 RMK A01 T03000154  RH  041%=      5-min Rain = 0
KME1 070432Z 16008KT 30/15 A3001 RMK A01 T02980154  RH  042%=      5-min Rain = 0
KME1 070433Z 17010G15KT 30/15 A3001 RMK A01 T02980154  RH  042%=      5-min Rain = 0
KME1 070434Z 16009KT 30/15 A3001 RMK A01 T02980154  RH  042%=      5-min Rain = 0
KME1 070435Z 17007KT 30/15 A3001 RMK A01 T02970154  RH  042%=      5-min Rain = 0
KME1 070436Z 17013KT 30/15 A3001 RMK A01 T02970154  RH  042%=      5-min Rain = 0
KME1 070437Z 16011KT 30/15 A3001 RMK A01 T02980154  RH  042%=      5-min Rain = 0
KME1 070438Z 16008KT 30/15 A3001 RMK A01 T02980154  RH  042%=      5-min Rain = 0
KME1 070439Z 17008KT 30/15 A3001 RMK A01 T02980154  RH  042%=      5-min Rain = 0
KME1 070440Z 16010KT 30/15 A3001 RMK A01 T02980154  RH  042%=      5-min Rain = 0
KME1 070441Z 17010KT 30/15 A3001 RMK A01 T02970154  RH  042%=      5-min Rain = 0
KME1 070442Z 17012KT 30/15 A3001 RMK A01 T02970154  RH  042%=      5-min Rain = 0
KME1 070443Z 17009KT 30/15 A3001 RMK A01 T02980154  RH  042%=      5-min Rain = 0
KME1 070444Z 17010KT 30/15 A3001 RMK A01 T02970154  RH  042%=      5-min Rain = 0
KME1 070445Z 16007KT 30/15 A3001 RMK A01 T02970154  RH  042%=      5-min Rain = 0
KME1 070446Z 16010KT 30/15 A3001 RMK A01 T02970154  RH  042%=      5-min Rain = 0
KME1 070447Z 16009KT 30/15 A3001 RMK A01 T02970154  RH  042%=      5-min Rain = 0
KME1 070448Z 17008KT 30/15 A3001 RMK A01 T02970154  RH  042%=      5-min Rain = 0
KME1 070449Z 16007KT 30/15 A3001 RMK A01 T02970154  RH  042%=      5-min Rain = 0
KME1 070450Z 17007KT 30/15 A3001 RMK A01 T02960153  RH  042%=      5-min Rain = 0
KME1 070451Z 16011KT 30/15 A3001 RMK A01 T02950154  RH  042%=      5-min Rain = 0
KME1 070452Z 17010KT 30/15 A3001 RMK A01 T02950153  RH  042%=      5-min Rain = 0
KME1 070453Z 17008KT 30/15 A3001 RMK A01 T02950153  RH  042%=      5-min Rain = 0
KME1 070454Z 16008KT 30/15 A3001 RMK A01 T02950153  RH  042%=      5-min Rain = 0
KME1 070455Z 16011G16KT 30/15 A3001 RMK A01 T02950153  RH  042%=      5-min Rain = 0
KME1 070456Z 17013KT 29/15 A3001 RMK A01 T02940154  RH  042%=      5-min Rain = 0
KME1 070457Z 17012KT 30/15 A3001 RMK A01 T02950153  RH  042%=      5-min Rain = 0
KME1 070458Z 17011KT 30/15 A3001 RMK A01 T02960154  RH  042%=      5-min Rain = 0
KME1 070459Z 16011KT 30/15 A3001 RMK A01 T02960153  RH  042%=      5-min Rain = 0

Page generated in 0.1804 seconds.